<?xml version="1.0" encoding="UTF-8" standalone="no" ?>
<gpx xmlns="http://www.topografix.com/GPX/1/1" xmlns:xsi="http://www.w3.org/2001/XMLSchema-instance" xsi:schemaLocation="http://www.topografix.com/GPX/1/1 http://www.topografix.com/GPX/1/1/gpx.xsd" version="1.1" creator="VisuGPX - https://www.visugpx.com">
  <metadata>
    <name>reconnaissance Gov</name>
  </metadata>
  <trk>
    <name><![CDATA[reconnaissance Gov]]></name>
    <trkseg>
      <trkpt lat="45.38638" lon="4.67552">
        <ele>545.40002441406</ele>
        <time>2022-02-20T12:35:39.000Z</time>
      </trkpt>
      <trkpt lat="45.38639" lon="4.67552">
        <ele>537</ele>
        <time>2022-02-20T12:35:40.000Z</time>
      </trkpt>
      <trkpt lat="45.38639" lon="4.67552">
        <ele>532.59997558594</ele>
        <time>2022-02-20T12:35:41.000Z</time>
      </trkpt>
      <trkpt lat="45.3864" lon="4.67552">
        <ele>529.40002441406</ele>
        <time>2022-02-20T12:35:43.000Z</time>
      </trkpt>
      <trkpt lat="45.3864" lon="4.67553">
        <ele>528.40002441406</ele>
        <time>2022-02-20T12:35:45.000Z</time>
      </trkpt>
      <trkpt lat="45.38633" lon="4.67552">
        <ele>528.40002441406</ele>
        <time>2022-02-20T12:36:06.000Z</time>
      </trkpt>
      <trkpt lat="45.38622" lon="4.67557">
        <ele>528.40002441406</ele>
        <time>2022-02-20T12:36:19.000Z</time>
      </trkpt>
      <trkpt lat="45.38616" lon="4.67547">
        <ele>528.59997558594</ele>
        <time>2022-02-20T12:36:33.000Z</time>
      </trkpt>
      <trkpt lat="45.3863" lon="4.67548">
        <ele>528.59997558594</ele>
        <time>2022-02-20T12:36:53.000Z</time>
      </trkpt>
      <trkpt lat="45.3863" lon="4.67559">
        <ele>528.20001220703</ele>
        <time>2022-02-20T12:37:32.000Z</time>
      </trkpt>
      <trkpt lat="45.38617" lon="4.67574">
        <ele>528.59997558594</ele>
        <time>2022-02-20T12:37:52.000Z</time>
      </trkpt>
      <trkpt lat="45.38614" lon="4.67579">
        <ele>528.79998779297</ele>
        <time>2022-02-20T12:37:56.000Z</time>
      </trkpt>
      <trkpt lat="45.38605" lon="4.67609">
        <ele>529.79998779297</ele>
        <time>2022-02-20T12:38:18.000Z</time>
      </trkpt>
      <trkpt lat="45.38596" lon="4.67616">
        <ele>529.79998779297</ele>
        <time>2022-02-20T12:38:28.000Z</time>
      </trkpt>
      <trkpt lat="45.38593" lon="4.67618">
        <ele>530</ele>
        <time>2022-02-20T12:38:31.000Z</time>
      </trkpt>
      <trkpt lat="45.38577" lon="4.67636">
        <ele>530</ele>
        <time>2022-02-20T12:38:49.000Z</time>
      </trkpt>
      <trkpt lat="45.38576" lon="4.67638">
        <ele>530</ele>
        <time>2022-02-20T12:38:50.000Z</time>
      </trkpt>
      <trkpt lat="45.38571" lon="4.67642">
        <ele>530</ele>
        <time>2022-02-20T12:38:53.000Z</time>
      </trkpt>
      <trkpt lat="45.38546" lon="4.67656">
        <ele>529.40002441406</ele>
        <time>2022-02-20T12:39:13.000Z</time>
      </trkpt>
      <trkpt lat="45.38519" lon="4.67661">
        <ele>528</ele>
        <time>2022-02-20T12:39:33.000Z</time>
      </trkpt>
      <trkpt lat="45.38501" lon="4.67665">
        <ele>525.79998779297</ele>
        <time>2022-02-20T12:39:51.000Z</time>
      </trkpt>
      <trkpt lat="45.38491" lon="4.67665">
        <ele>524.40002441406</ele>
        <time>2022-02-20T12:40:05.000Z</time>
      </trkpt>
      <trkpt lat="45.38488" lon="4.67669">
        <ele>523.79998779297</ele>
        <time>2022-02-20T12:40:09.000Z</time>
      </trkpt>
      <trkpt lat="45.38467" lon="4.67668">
        <ele>522.40002441406</ele>
        <time>2022-02-20T12:40:24.000Z</time>
      </trkpt>
      <trkpt lat="45.38442" lon="4.67669">
        <ele>520.20001220703</ele>
        <time>2022-02-20T12:40:42.000Z</time>
      </trkpt>
      <trkpt lat="45.38428" lon="4.6767">
        <ele>518.59997558594</ele>
        <time>2022-02-20T12:40:53.000Z</time>
      </trkpt>
      <trkpt lat="45.38417" lon="4.67671">
        <ele>517.20001220703</ele>
        <time>2022-02-20T12:41:02.000Z</time>
      </trkpt>
      <trkpt lat="45.38393" lon="4.67673">
        <ele>514</ele>
        <time>2022-02-20T12:41:23.000Z</time>
      </trkpt>
      <trkpt lat="45.3838" lon="4.67674">
        <ele>511</ele>
        <time>2022-02-20T12:41:37.000Z</time>
      </trkpt>
      <trkpt lat="45.38379" lon="4.67674">
        <ele>510.79998779297</ele>
        <time>2022-02-20T12:41:38.000Z</time>
      </trkpt>
      <trkpt lat="45.3838" lon="4.67676">
        <ele>510.39999389648</ele>
        <time>2022-02-20T12:41:41.000Z</time>
      </trkpt>
      <trkpt lat="45.38386" lon="4.67683">
        <ele>509.20001220703</ele>
        <time>2022-02-20T12:41:47.000Z</time>
      </trkpt>
      <trkpt lat="45.3839" lon="4.67687">
        <ele>507.79998779297</ele>
        <time>2022-02-20T12:41:52.000Z</time>
      </trkpt>
      <trkpt lat="45.38405" lon="4.67711">
        <ele>505.60000610352</ele>
        <time>2022-02-20T12:42:10.000Z</time>
      </trkpt>
      <trkpt lat="45.38405" lon="4.67717">
        <ele>504.79998779297</ele>
        <time>2022-02-20T12:42:14.000Z</time>
      </trkpt>
      <trkpt lat="45.38404" lon="4.67721">
        <ele>504.20001220703</ele>
        <time>2022-02-20T12:42:17.000Z</time>
      </trkpt>
      <trkpt lat="45.384" lon="4.6773">
        <ele>502.60000610352</ele>
        <time>2022-02-20T12:42:24.000Z</time>
      </trkpt>
      <trkpt lat="45.38397" lon="4.67739">
        <ele>501</ele>
        <time>2022-02-20T12:42:32.000Z</time>
      </trkpt>
      <trkpt lat="45.38393" lon="4.67756">
        <ele>498.79998779297</ele>
        <time>2022-02-20T12:42:43.000Z</time>
      </trkpt>
      <trkpt lat="45.38391" lon="4.67759">
        <ele>498.20001220703</ele>
        <time>2022-02-20T12:42:46.000Z</time>
      </trkpt>
      <trkpt lat="45.3839" lon="4.67766">
        <ele>497.20001220703</ele>
        <time>2022-02-20T12:42:51.000Z</time>
      </trkpt>
      <trkpt lat="45.38377" lon="4.67776">
        <ele>493.79998779297</ele>
        <time>2022-02-20T12:43:06.000Z</time>
      </trkpt>
      <trkpt lat="45.38366" lon="4.67772">
        <ele>492.79998779297</ele>
        <time>2022-02-20T12:43:13.000Z</time>
      </trkpt>
      <trkpt lat="45.38362" lon="4.67771">
        <ele>492.79998779297</ele>
        <time>2022-02-20T12:43:16.000Z</time>
      </trkpt>
      <trkpt lat="45.38358" lon="4.67769">
        <ele>492.60000610352</ele>
        <time>2022-02-20T12:43:20.000Z</time>
      </trkpt>
      <trkpt lat="45.38352" lon="4.67765">
        <ele>492.79998779297</ele>
        <time>2022-02-20T12:43:26.000Z</time>
      </trkpt>
      <trkpt lat="45.38332" lon="4.67754">
        <ele>493</ele>
        <time>2022-02-20T12:43:44.000Z</time>
      </trkpt>
      <trkpt lat="45.38327" lon="4.67752">
        <ele>492.79998779297</ele>
        <time>2022-02-20T12:43:48.000Z</time>
      </trkpt>
      <trkpt lat="45.38305" lon="4.67749">
        <ele>491.39999389648</ele>
        <time>2022-02-20T12:44:07.000Z</time>
      </trkpt>
      <trkpt lat="45.38291" lon="4.67747">
        <ele>491.20001220703</ele>
        <time>2022-02-20T12:44:20.000Z</time>
      </trkpt>
      <trkpt lat="45.38276" lon="4.67744">
        <ele>491.20001220703</ele>
        <time>2022-02-20T12:44:36.000Z</time>
      </trkpt>
      <trkpt lat="45.38251" lon="4.67729">
        <ele>490.79998779297</ele>
        <time>2022-02-20T12:44:59.000Z</time>
      </trkpt>
      <trkpt lat="45.38222" lon="4.67699">
        <ele>491</ele>
        <time>2022-02-20T12:45:28.000Z</time>
      </trkpt>
      <trkpt lat="45.38197" lon="4.67715">
        <ele>491.60000610352</ele>
        <time>2022-02-20T12:45:52.000Z</time>
      </trkpt>
      <trkpt lat="45.3818" lon="4.6774">
        <ele>488.39999389648</ele>
        <time>2022-02-20T12:46:14.000Z</time>
      </trkpt>
      <trkpt lat="45.38163" lon="4.67752">
        <ele>485.20001220703</ele>
        <time>2022-02-20T12:46:32.000Z</time>
      </trkpt>
      <trkpt lat="45.38162" lon="4.67752">
        <ele>484.60000610352</ele>
        <time>2022-02-20T12:46:33.000Z</time>
      </trkpt>
      <trkpt lat="45.38157" lon="4.67751">
        <ele>483.79998779297</ele>
        <time>2022-02-20T12:46:37.000Z</time>
      </trkpt>
      <trkpt lat="45.38153" lon="4.67758">
        <ele>483.20001220703</ele>
        <time>2022-02-20T12:46:41.000Z</time>
      </trkpt>
      <trkpt lat="45.38144" lon="4.67791">
        <ele>480.60000610352</ele>
        <time>2022-02-20T12:47:01.000Z</time>
      </trkpt>
      <trkpt lat="45.38125" lon="4.6782">
        <ele>477.60000610352</ele>
        <time>2022-02-20T12:47:26.000Z</time>
      </trkpt>
      <trkpt lat="45.38103" lon="4.67831">
        <ele>474.60000610352</ele>
        <time>2022-02-20T12:47:45.000Z</time>
      </trkpt>
      <trkpt lat="45.38085" lon="4.67825">
        <ele>472.79998779297</ele>
        <time>2022-02-20T12:47:59.000Z</time>
      </trkpt>
      <trkpt lat="45.38082" lon="4.67826">
        <ele>472.60000610352</ele>
        <time>2022-02-20T12:48:02.000Z</time>
      </trkpt>
      <trkpt lat="45.38075" lon="4.6785">
        <ele>471.79998779297</ele>
        <time>2022-02-20T12:48:19.000Z</time>
      </trkpt>
      <trkpt lat="45.38068" lon="4.67875">
        <ele>470.20001220703</ele>
        <time>2022-02-20T12:48:34.000Z</time>
      </trkpt>
      <trkpt lat="45.38066" lon="4.6788">
        <ele>469.79998779297</ele>
        <time>2022-02-20T12:48:37.000Z</time>
      </trkpt>
      <trkpt lat="45.38061" lon="4.67901">
        <ele>468.39999389648</ele>
        <time>2022-02-20T12:48:49.000Z</time>
      </trkpt>
      <trkpt lat="45.38052" lon="4.67931">
        <ele>466</ele>
        <time>2022-02-20T12:49:08.000Z</time>
      </trkpt>
      <trkpt lat="45.38041" lon="4.67963">
        <ele>463.20001220703</ele>
        <time>2022-02-20T12:49:29.000Z</time>
      </trkpt>
      <trkpt lat="45.38021" lon="4.67982">
        <ele>461</ele>
        <time>2022-02-20T12:49:49.000Z</time>
      </trkpt>
      <trkpt lat="45.38003" lon="4.67995">
        <ele>461.20001220703</ele>
        <time>2022-02-20T12:50:05.000Z</time>
      </trkpt>
      <trkpt lat="45.38002" lon="4.67995">
        <ele>461.20001220703</ele>
        <time>2022-02-20T12:50:06.000Z</time>
      </trkpt>
      <trkpt lat="45.37998" lon="4.67997">
        <ele>461.20001220703</ele>
        <time>2022-02-20T12:50:09.000Z</time>
      </trkpt>
      <trkpt lat="45.37988" lon="4.68005">
        <ele>461.39999389648</ele>
        <time>2022-02-20T12:50:17.000Z</time>
      </trkpt>
      <trkpt lat="45.37985" lon="4.68006">
        <ele>461.39999389648</ele>
        <time>2022-02-20T12:50:20.000Z</time>
      </trkpt>
      <trkpt lat="45.37974" lon="4.68013">
        <ele>461.20001220703</ele>
        <time>2022-02-20T12:50:30.000Z</time>
      </trkpt>
      <trkpt lat="45.37958" lon="4.68029">
        <ele>459.60000610352</ele>
        <time>2022-02-20T12:50:45.000Z</time>
      </trkpt>
      <trkpt lat="45.37931" lon="4.68044">
        <ele>458</ele>
        <time>2022-02-20T12:51:09.000Z</time>
      </trkpt>
      <trkpt lat="45.37915" lon="4.68056">
        <ele>454.79998779297</ele>
        <time>2022-02-20T12:51:24.000Z</time>
      </trkpt>
      <trkpt lat="45.37894" lon="4.68057">
        <ele>453.20001220703</ele>
        <time>2022-02-20T12:51:43.000Z</time>
      </trkpt>
      <trkpt lat="45.37858" lon="4.68059">
        <ele>450.60000610352</ele>
        <time>2022-02-20T12:52:10.000Z</time>
      </trkpt>
      <trkpt lat="45.37819" lon="4.68061">
        <ele>447.60000610352</ele>
        <time>2022-02-20T12:52:42.000Z</time>
      </trkpt>
      <trkpt lat="45.378" lon="4.68064">
        <ele>446.60000610352</ele>
        <time>2022-02-20T12:53:01.000Z</time>
      </trkpt>
      <trkpt lat="45.3778" lon="4.68065">
        <ele>446.39999389648</ele>
        <time>2022-02-20T12:53:18.000Z</time>
      </trkpt>
      <trkpt lat="45.37764" lon="4.68069">
        <ele>446.20001220703</ele>
        <time>2022-02-20T12:53:32.000Z</time>
      </trkpt>
      <trkpt lat="45.37746" lon="4.68076">
        <ele>445.60000610352</ele>
        <time>2022-02-20T12:53:47.000Z</time>
      </trkpt>
      <trkpt lat="45.37736" lon="4.68078">
        <ele>445.20001220703</ele>
        <time>2022-02-20T12:53:57.000Z</time>
      </trkpt>
      <trkpt lat="45.37718" lon="4.68087">
        <ele>443.39999389648</ele>
        <time>2022-02-20T12:54:14.000Z</time>
      </trkpt>
      <trkpt lat="45.37701" lon="4.68099">
        <ele>441</ele>
        <time>2022-02-20T12:54:32.000Z</time>
      </trkpt>
      <trkpt lat="45.37682" lon="4.68113">
        <ele>438.39999389648</ele>
        <time>2022-02-20T12:54:51.000Z</time>
      </trkpt>
      <trkpt lat="45.37675" lon="4.6812">
        <ele>437.60000610352</ele>
        <time>2022-02-20T12:54:59.000Z</time>
      </trkpt>
      <trkpt lat="45.37672" lon="4.68126">
        <ele>437.20001220703</ele>
        <time>2022-02-20T12:55:04.000Z</time>
      </trkpt>
      <trkpt lat="45.37654" lon="4.68156">
        <ele>433.79998779297</ele>
        <time>2022-02-20T12:55:30.000Z</time>
      </trkpt>
      <trkpt lat="45.37637" lon="4.68198">
        <ele>431</ele>
        <time>2022-02-20T12:56:00.000Z</time>
      </trkpt>
      <trkpt lat="45.37618" lon="4.68194">
        <ele>429.39999389648</ele>
        <time>2022-02-20T12:56:15.000Z</time>
      </trkpt>
      <trkpt lat="45.37611" lon="4.6819">
        <ele>429.39999389648</ele>
        <time>2022-02-20T12:56:21.000Z</time>
      </trkpt>
      <trkpt lat="45.37609" lon="4.68189">
        <ele>429.60000610352</ele>
        <time>2022-02-20T12:56:23.000Z</time>
      </trkpt>
      <trkpt lat="45.37583" lon="4.68168">
        <ele>430.60000610352</ele>
        <time>2022-02-20T12:56:46.000Z</time>
      </trkpt>
      <trkpt lat="45.37553" lon="4.68128">
        <ele>431.60000610352</ele>
        <time>2022-02-20T12:57:19.000Z</time>
      </trkpt>
      <trkpt lat="45.37525" lon="4.68095">
        <ele>433</ele>
        <time>2022-02-20T12:57:49.000Z</time>
      </trkpt>
      <trkpt lat="45.37495" lon="4.68074">
        <ele>434.79998779297</ele>
        <time>2022-02-20T12:58:16.000Z</time>
      </trkpt>
      <trkpt lat="45.37477" lon="4.68062">
        <ele>435.60000610352</ele>
        <time>2022-02-20T12:58:33.000Z</time>
      </trkpt>
      <trkpt lat="45.37451" lon="4.68053">
        <ele>436.79998779297</ele>
        <time>2022-02-20T12:58:54.000Z</time>
      </trkpt>
      <trkpt lat="45.37419" lon="4.68044">
        <ele>436.39999389648</ele>
        <time>2022-02-20T12:59:20.000Z</time>
      </trkpt>
      <trkpt lat="45.37392" lon="4.6804">
        <ele>436.20001220703</ele>
        <time>2022-02-20T12:59:43.000Z</time>
      </trkpt>
      <trkpt lat="45.37361" lon="4.68019">
        <ele>438.39999389648</ele>
        <time>2022-02-20T13:00:11.000Z</time>
      </trkpt>
      <trkpt lat="45.37332" lon="4.67996">
        <ele>440.79998779297</ele>
        <time>2022-02-20T13:00:39.000Z</time>
      </trkpt>
      <trkpt lat="45.37304" lon="4.67957">
        <ele>443.20001220703</ele>
        <time>2022-02-20T13:01:11.000Z</time>
      </trkpt>
      <trkpt lat="45.37288" lon="4.67926">
        <ele>444.79998779297</ele>
        <time>2022-02-20T13:01:33.000Z</time>
      </trkpt>
      <trkpt lat="45.37281" lon="4.67915">
        <ele>445.60000610352</ele>
        <time>2022-02-20T13:01:42.000Z</time>
      </trkpt>
      <trkpt lat="45.37275" lon="4.67906">
        <ele>446.39999389648</ele>
        <time>2022-02-20T13:01:49.000Z</time>
      </trkpt>
      <trkpt lat="45.37256" lon="4.67872">
        <ele>448.20001220703</ele>
        <time>2022-02-20T13:02:15.000Z</time>
      </trkpt>
      <trkpt lat="45.37244" lon="4.67856">
        <ele>449.39999389648</ele>
        <time>2022-02-20T13:02:30.000Z</time>
      </trkpt>
      <trkpt lat="45.37223" lon="4.67841">
        <ele>452.60000610352</ele>
        <time>2022-02-20T13:02:53.000Z</time>
      </trkpt>
      <trkpt lat="45.37204" lon="4.67829">
        <ele>455.60000610352</ele>
        <time>2022-02-20T13:03:11.000Z</time>
      </trkpt>
      <trkpt lat="45.37189" lon="4.67819">
        <ele>459</ele>
        <time>2022-02-20T13:03:27.000Z</time>
      </trkpt>
      <trkpt lat="45.37172" lon="4.67809">
        <ele>462</ele>
        <time>2022-02-20T13:03:46.000Z</time>
      </trkpt>
      <trkpt lat="45.37171" lon="4.67807">
        <ele>462.39999389648</ele>
        <time>2022-02-20T13:03:48.000Z</time>
      </trkpt>
      <trkpt lat="45.37169" lon="4.67807">
        <ele>462.79998779297</ele>
        <time>2022-02-20T13:03:50.000Z</time>
      </trkpt>
      <trkpt lat="45.37159" lon="4.67807">
        <ele>464.79998779297</ele>
        <time>2022-02-20T13:04:01.000Z</time>
      </trkpt>
      <trkpt lat="45.37148" lon="4.67801">
        <ele>465.79998779297</ele>
        <time>2022-02-20T13:04:12.000Z</time>
      </trkpt>
      <trkpt lat="45.37128" lon="4.6779">
        <ele>468.20001220703</ele>
        <time>2022-02-20T13:04:33.000Z</time>
      </trkpt>
      <trkpt lat="45.3712" lon="4.67789">
        <ele>469.20001220703</ele>
        <time>2022-02-20T13:04:40.000Z</time>
      </trkpt>
      <trkpt lat="45.37101" lon="4.67782">
        <ele>472.39999389648</ele>
        <time>2022-02-20T13:05:01.000Z</time>
      </trkpt>
      <trkpt lat="45.37084" lon="4.67775">
        <ele>475.79998779297</ele>
        <time>2022-02-20T13:05:19.000Z</time>
      </trkpt>
      <trkpt lat="45.37084" lon="4.67774">
        <ele>476.20001220703</ele>
        <time>2022-02-20T13:05:21.000Z</time>
      </trkpt>
      <trkpt lat="45.37079" lon="4.67772">
        <ele>476.79998779297</ele>
        <time>2022-02-20T13:05:25.000Z</time>
      </trkpt>
      <trkpt lat="45.37051" lon="4.67762">
        <ele>479.60000610352</ele>
        <time>2022-02-20T13:05:51.000Z</time>
      </trkpt>
      <trkpt lat="45.37028" lon="4.67752">
        <ele>482.20001220703</ele>
        <time>2022-02-20T13:06:12.000Z</time>
      </trkpt>
      <trkpt lat="45.37001" lon="4.67742">
        <ele>483.79998779297</ele>
        <time>2022-02-20T13:06:35.000Z</time>
      </trkpt>
      <trkpt lat="45.36981" lon="4.67715">
        <ele>485.39999389648</ele>
        <time>2022-02-20T13:06:58.000Z</time>
      </trkpt>
      <trkpt lat="45.36959" lon="4.67677">
        <ele>485.79998779297</ele>
        <time>2022-02-20T13:07:28.000Z</time>
      </trkpt>
      <trkpt lat="45.36942" lon="4.67634">
        <ele>483.20001220703</ele>
        <time>2022-02-20T13:07:57.000Z</time>
      </trkpt>
      <trkpt lat="45.36927" lon="4.67608">
        <ele>481.39999389648</ele>
        <time>2022-02-20T13:08:17.000Z</time>
      </trkpt>
      <trkpt lat="45.36913" lon="4.67583">
        <ele>480.20001220703</ele>
        <time>2022-02-20T13:08:35.000Z</time>
      </trkpt>
      <trkpt lat="45.36906" lon="4.67545">
        <ele>479.20001220703</ele>
        <time>2022-02-20T13:08:57.000Z</time>
      </trkpt>
      <trkpt lat="45.36896" lon="4.67499">
        <ele>479.39999389648</ele>
        <time>2022-02-20T13:09:23.000Z</time>
      </trkpt>
      <trkpt lat="45.36884" lon="4.67446">
        <ele>480</ele>
        <time>2022-02-20T13:09:54.000Z</time>
      </trkpt>
      <trkpt lat="45.36878" lon="4.67402">
        <ele>481.39999389648</ele>
        <time>2022-02-20T13:10:20.000Z</time>
      </trkpt>
      <trkpt lat="45.36866" lon="4.67368">
        <ele>482.20001220703</ele>
        <time>2022-02-20T13:10:41.000Z</time>
      </trkpt>
      <trkpt lat="45.36848" lon="4.6732">
        <ele>483.39999389648</ele>
        <time>2022-02-20T13:11:10.000Z</time>
      </trkpt>
      <trkpt lat="45.36818" lon="4.67272">
        <ele>483.60000610352</ele>
        <time>2022-02-20T13:11:45.000Z</time>
      </trkpt>
      <trkpt lat="45.36786" lon="4.67227">
        <ele>481</ele>
        <time>2022-02-20T13:12:21.000Z</time>
      </trkpt>
      <trkpt lat="45.36771" lon="4.67216">
        <ele>480</ele>
        <time>2022-02-20T13:12:34.000Z</time>
      </trkpt>
      <trkpt lat="45.36749" lon="4.67208">
        <ele>478.39999389648</ele>
        <time>2022-02-20T13:12:53.000Z</time>
      </trkpt>
      <trkpt lat="45.36741" lon="4.67204">
        <ele>478</ele>
        <time>2022-02-20T13:13:00.000Z</time>
      </trkpt>
      <trkpt lat="45.36705" lon="4.67184">
        <ele>477.60000610352</ele>
        <time>2022-02-20T13:13:30.000Z</time>
      </trkpt>
      <trkpt lat="45.36668" lon="4.67145">
        <ele>478</ele>
        <time>2022-02-20T13:14:06.000Z</time>
      </trkpt>
      <trkpt lat="45.36657" lon="4.67136">
        <ele>478.39999389648</ele>
        <time>2022-02-20T13:14:16.000Z</time>
      </trkpt>
      <trkpt lat="45.36652" lon="4.67133">
        <ele>478.60000610352</ele>
        <time>2022-02-20T13:14:20.000Z</time>
      </trkpt>
      <trkpt lat="45.36624" lon="4.67132">
        <ele>479.20001220703</ele>
        <time>2022-02-20T13:14:43.000Z</time>
      </trkpt>
      <trkpt lat="45.36603" lon="4.67131">
        <ele>479.60000610352</ele>
        <time>2022-02-20T13:14:59.000Z</time>
      </trkpt>
      <trkpt lat="45.36601" lon="4.67132">
        <ele>479.60000610352</ele>
        <time>2022-02-20T13:15:01.000Z</time>
      </trkpt>
      <trkpt lat="45.36577" lon="4.67132">
        <ele>479.60000610352</ele>
        <time>2022-02-20T13:15:20.000Z</time>
      </trkpt>
      <trkpt lat="45.36557" lon="4.67137">
        <ele>479</ele>
        <time>2022-02-20T13:15:36.000Z</time>
      </trkpt>
      <trkpt lat="45.36553" lon="4.67138">
        <ele>479</ele>
        <time>2022-02-20T13:15:39.000Z</time>
      </trkpt>
      <trkpt lat="45.36525" lon="4.67144">
        <ele>479.20001220703</ele>
        <time>2022-02-20T13:16:01.000Z</time>
      </trkpt>
      <trkpt lat="45.36496" lon="4.67133">
        <ele>479.60000610352</ele>
        <time>2022-02-20T13:16:24.000Z</time>
      </trkpt>
      <trkpt lat="45.36478" lon="4.6713">
        <ele>479.20001220703</ele>
        <time>2022-02-20T13:16:40.000Z</time>
      </trkpt>
      <trkpt lat="45.36469" lon="4.67131">
        <ele>478.79998779297</ele>
        <time>2022-02-20T13:16:48.000Z</time>
      </trkpt>
      <trkpt lat="45.36463" lon="4.67129">
        <ele>478.79998779297</ele>
        <time>2022-02-20T13:16:52.000Z</time>
      </trkpt>
      <trkpt lat="45.36438" lon="4.67113">
        <ele>478.79998779297</ele>
        <time>2022-02-20T13:17:13.000Z</time>
      </trkpt>
      <trkpt lat="45.36432" lon="4.67104">
        <ele>479.39999389648</ele>
        <time>2022-02-20T13:17:20.000Z</time>
      </trkpt>
      <trkpt lat="45.36426" lon="4.67095">
        <ele>480.20001220703</ele>
        <time>2022-02-20T13:17:27.000Z</time>
      </trkpt>
      <trkpt lat="45.36421" lon="4.67081">
        <ele>481</ele>
        <time>2022-02-20T13:17:36.000Z</time>
      </trkpt>
      <trkpt lat="45.36408" lon="4.67064">
        <ele>482.60000610352</ele>
        <time>2022-02-20T13:17:50.000Z</time>
      </trkpt>
      <trkpt lat="45.36397" lon="4.67053">
        <ele>482.79998779297</ele>
        <time>2022-02-20T13:18:01.000Z</time>
      </trkpt>
      <trkpt lat="45.36393" lon="4.67049">
        <ele>483</ele>
        <time>2022-02-20T13:18:05.000Z</time>
      </trkpt>
      <trkpt lat="45.3638" lon="4.67033">
        <ele>484.20001220703</ele>
        <time>2022-02-20T13:18:19.000Z</time>
      </trkpt>
      <trkpt lat="45.36363" lon="4.67017">
        <ele>485.39999389648</ele>
        <time>2022-02-20T13:18:36.000Z</time>
      </trkpt>
      <trkpt lat="45.36356" lon="4.67013">
        <ele>485.60000610352</ele>
        <time>2022-02-20T13:18:41.000Z</time>
      </trkpt>
      <trkpt lat="45.36347" lon="4.66998">
        <ele>486</ele>
        <time>2022-02-20T13:18:52.000Z</time>
      </trkpt>
      <trkpt lat="45.36337" lon="4.66984">
        <ele>486.60000610352</ele>
        <time>2022-02-20T13:19:04.000Z</time>
      </trkpt>
      <trkpt lat="45.36332" lon="4.66973">
        <ele>487</ele>
        <time>2022-02-20T13:19:11.000Z</time>
      </trkpt>
      <trkpt lat="45.36323" lon="4.66957">
        <ele>487.60000610352</ele>
        <time>2022-02-20T13:19:22.000Z</time>
      </trkpt>
      <trkpt lat="45.36313" lon="4.66937">
        <ele>488.20001220703</ele>
        <time>2022-02-20T13:19:38.000Z</time>
      </trkpt>
      <trkpt lat="45.36307" lon="4.66924">
        <ele>488.79998779297</ele>
        <time>2022-02-20T13:19:47.000Z</time>
      </trkpt>
      <trkpt lat="45.36292" lon="4.66901">
        <ele>489.20001220703</ele>
        <time>2022-02-20T13:20:03.000Z</time>
      </trkpt>
      <trkpt lat="45.36276" lon="4.66879">
        <ele>489.79998779297</ele>
        <time>2022-02-20T13:20:22.000Z</time>
      </trkpt>
      <trkpt lat="45.36261" lon="4.66857">
        <ele>489.79998779297</ele>
        <time>2022-02-20T13:20:38.000Z</time>
      </trkpt>
      <trkpt lat="45.36257" lon="4.66853">
        <ele>490</ele>
        <time>2022-02-20T13:20:42.000Z</time>
      </trkpt>
      <trkpt lat="45.36238" lon="4.66825">
        <ele>490.20001220703</ele>
        <time>2022-02-20T13:21:10.000Z</time>
      </trkpt>
      <trkpt lat="45.36235" lon="4.66826">
        <ele>490.39999389648</ele>
        <time>2022-02-20T13:21:39.000Z</time>
      </trkpt>
      <trkpt lat="45.3623" lon="4.66829">
        <ele>490.39999389648</ele>
        <time>2022-02-20T13:21:43.000Z</time>
      </trkpt>
      <trkpt lat="45.36197" lon="4.66858">
        <ele>489</ele>
        <time>2022-02-20T13:22:12.000Z</time>
      </trkpt>
      <trkpt lat="45.36175" lon="4.66885">
        <ele>488.39999389648</ele>
        <time>2022-02-20T13:22:37.000Z</time>
      </trkpt>
      <trkpt lat="45.36174" lon="4.66886">
        <ele>488.39999389648</ele>
        <time>2022-02-20T13:22:40.000Z</time>
      </trkpt>
      <trkpt lat="45.36172" lon="4.66888">
        <ele>488.39999389648</ele>
        <time>2022-02-20T13:22:43.000Z</time>
      </trkpt>
      <trkpt lat="45.36165" lon="4.66894">
        <ele>488.20001220703</ele>
        <time>2022-02-20T13:22:50.000Z</time>
      </trkpt>
      <trkpt lat="45.36147" lon="4.66916">
        <ele>487.39999389648</ele>
        <time>2022-02-20T13:23:10.000Z</time>
      </trkpt>
      <trkpt lat="45.36135" lon="4.6693">
        <ele>484.39999389648</ele>
        <time>2022-02-20T13:23:28.000Z</time>
      </trkpt>
      <trkpt lat="45.36133" lon="4.66941">
        <ele>482.79998779297</ele>
        <time>2022-02-20T13:23:37.000Z</time>
      </trkpt>
      <trkpt lat="45.36133" lon="4.6695">
        <ele>482</ele>
        <time>2022-02-20T13:23:44.000Z</time>
      </trkpt>
      <trkpt lat="45.36132" lon="4.66955">
        <ele>481.60000610352</ele>
        <time>2022-02-20T13:23:48.000Z</time>
      </trkpt>
      <trkpt lat="45.36137" lon="4.66958">
        <ele>479.79998779297</ele>
        <time>2022-02-20T13:24:11.000Z</time>
      </trkpt>
      <trkpt lat="45.3613" lon="4.66971">
        <ele>479.60000610352</ele>
        <time>2022-02-20T13:24:30.000Z</time>
      </trkpt>
      <trkpt lat="45.36122" lon="4.66994">
        <ele>478.39999389648</ele>
        <time>2022-02-20T13:24:43.000Z</time>
      </trkpt>
      <trkpt lat="45.36116" lon="4.67004">
        <ele>477.60000610352</ele>
        <time>2022-02-20T13:24:50.000Z</time>
      </trkpt>
      <trkpt lat="45.36114" lon="4.67008">
        <ele>477.39999389648</ele>
        <time>2022-02-20T13:24:53.000Z</time>
      </trkpt>
      <trkpt lat="45.36106" lon="4.67029">
        <ele>476</ele>
        <time>2022-02-20T13:25:06.000Z</time>
      </trkpt>
      <trkpt lat="45.361" lon="4.67042">
        <ele>475.20001220703</ele>
        <time>2022-02-20T13:25:15.000Z</time>
      </trkpt>
      <trkpt lat="45.36086" lon="4.67063">
        <ele>473</ele>
        <time>2022-02-20T13:25:31.000Z</time>
      </trkpt>
      <trkpt lat="45.36074" lon="4.67087">
        <ele>471.60000610352</ele>
        <time>2022-02-20T13:25:48.000Z</time>
      </trkpt>
      <trkpt lat="45.36072" lon="4.67089">
        <ele>471.39999389648</ele>
        <time>2022-02-20T13:25:50.000Z</time>
      </trkpt>
      <trkpt lat="45.36063" lon="4.67104">
        <ele>471</ele>
        <time>2022-02-20T13:26:02.000Z</time>
      </trkpt>
      <trkpt lat="45.36059" lon="4.67115">
        <ele>470.60000610352</ele>
        <time>2022-02-20T13:26:09.000Z</time>
      </trkpt>
      <trkpt lat="45.36058" lon="4.67118">
        <ele>470.60000610352</ele>
        <time>2022-02-20T13:26:11.000Z</time>
      </trkpt>
      <trkpt lat="45.36055" lon="4.67129">
        <ele>470.39999389648</ele>
        <time>2022-02-20T13:26:18.000Z</time>
      </trkpt>
      <trkpt lat="45.36049" lon="4.6714">
        <ele>470</ele>
        <time>2022-02-20T13:26:25.000Z</time>
      </trkpt>
      <trkpt lat="45.36046" lon="4.67144">
        <ele>469.79998779297</ele>
        <time>2022-02-20T13:26:28.000Z</time>
      </trkpt>
      <trkpt lat="45.36041" lon="4.6715">
        <ele>469.39999389648</ele>
        <time>2022-02-20T13:26:33.000Z</time>
      </trkpt>
      <trkpt lat="45.36038" lon="4.67149">
        <ele>469.39999389648</ele>
        <time>2022-02-20T13:26:36.000Z</time>
      </trkpt>
      <trkpt lat="45.36031" lon="4.67123">
        <ele>469.60000610352</ele>
        <time>2022-02-20T13:26:51.000Z</time>
      </trkpt>
      <trkpt lat="45.36029" lon="4.67111">
        <ele>470.79998779297</ele>
        <time>2022-02-20T13:26:59.000Z</time>
      </trkpt>
      <trkpt lat="45.36021" lon="4.67066">
        <ele>472</ele>
        <time>2022-02-20T13:27:25.000Z</time>
      </trkpt>
      <trkpt lat="45.36024" lon="4.67019">
        <ele>471.60000610352</ele>
        <time>2022-02-20T13:27:52.000Z</time>
      </trkpt>
      <trkpt lat="45.36026" lon="4.66961">
        <ele>470.39999389648</ele>
        <time>2022-02-20T13:28:24.000Z</time>
      </trkpt>
      <trkpt lat="45.36026" lon="4.66958">
        <ele>470.39999389648</ele>
        <time>2022-02-20T13:28:26.000Z</time>
      </trkpt>
      <trkpt lat="45.36014" lon="4.66941">
        <ele>470</ele>
        <time>2022-02-20T13:28:44.000Z</time>
      </trkpt>
      <trkpt lat="45.36011" lon="4.66939">
        <ele>470</ele>
        <time>2022-02-20T13:28:48.000Z</time>
      </trkpt>
      <trkpt lat="45.35994" lon="4.66937">
        <ele>470.39999389648</ele>
        <time>2022-02-20T13:29:04.000Z</time>
      </trkpt>
      <trkpt lat="45.35992" lon="4.66938">
        <ele>470.60000610352</ele>
        <time>2022-02-20T13:29:13.000Z</time>
      </trkpt>
      <trkpt lat="45.35989" lon="4.6694">
        <ele>470.60000610352</ele>
        <time>2022-02-20T13:29:16.000Z</time>
      </trkpt>
      <trkpt lat="45.35965" lon="4.66942">
        <ele>472.60000610352</ele>
        <time>2022-02-20T13:29:36.000Z</time>
      </trkpt>
      <trkpt lat="45.35964" lon="4.66941">
        <ele>472.79998779297</ele>
        <time>2022-02-20T13:29:37.000Z</time>
      </trkpt>
      <trkpt lat="45.35937" lon="4.66936">
        <ele>474.39999389648</ele>
        <time>2022-02-20T13:29:57.000Z</time>
      </trkpt>
      <trkpt lat="45.35918" lon="4.66934">
        <ele>473.39999389648</ele>
        <time>2022-02-20T13:30:14.000Z</time>
      </trkpt>
      <trkpt lat="45.3589" lon="4.66932">
        <ele>472.20001220703</ele>
        <time>2022-02-20T13:30:34.000Z</time>
      </trkpt>
      <trkpt lat="45.35862" lon="4.66924">
        <ele>471</ele>
        <time>2022-02-20T13:30:58.000Z</time>
      </trkpt>
      <trkpt lat="45.35834" lon="4.6692">
        <ele>470.79998779297</ele>
        <time>2022-02-20T13:31:20.000Z</time>
      </trkpt>
      <trkpt lat="45.3582" lon="4.66923">
        <ele>470.60000610352</ele>
        <time>2022-02-20T13:31:30.000Z</time>
      </trkpt>
      <trkpt lat="45.35789" lon="4.66918">
        <ele>470</ele>
        <time>2022-02-20T13:31:54.000Z</time>
      </trkpt>
      <trkpt lat="45.35752" lon="4.66916">
        <ele>467.39999389648</ele>
        <time>2022-02-20T13:32:25.000Z</time>
      </trkpt>
      <trkpt lat="45.35717" lon="4.66911">
        <ele>466.39999389648</ele>
        <time>2022-02-20T13:32:53.000Z</time>
      </trkpt>
      <trkpt lat="45.35689" lon="4.66888">
        <ele>466</ele>
        <time>2022-02-20T13:33:17.000Z</time>
      </trkpt>
      <trkpt lat="45.35661" lon="4.66865">
        <ele>465.79998779297</ele>
        <time>2022-02-20T13:33:42.000Z</time>
      </trkpt>
      <trkpt lat="45.35623" lon="4.66837">
        <ele>465.39999389648</ele>
        <time>2022-02-20T13:34:15.000Z</time>
      </trkpt>
      <trkpt lat="45.35585" lon="4.6681">
        <ele>464.60000610352</ele>
        <time>2022-02-20T13:34:49.000Z</time>
      </trkpt>
      <trkpt lat="45.35579" lon="4.66803">
        <ele>464.39999389648</ele>
        <time>2022-02-20T13:34:55.000Z</time>
      </trkpt>
      <trkpt lat="45.3558" lon="4.66791">
        <ele>464.20001220703</ele>
        <time>2022-02-20T13:35:01.000Z</time>
      </trkpt>
      <trkpt lat="45.35598" lon="4.6677">
        <ele>465.20001220703</ele>
        <time>2022-02-20T13:35:20.000Z</time>
      </trkpt>
      <trkpt lat="45.3562" lon="4.66739">
        <ele>468</ele>
        <time>2022-02-20T13:35:45.000Z</time>
      </trkpt>
      <trkpt lat="45.35627" lon="4.66732">
        <ele>469</ele>
        <time>2022-02-20T13:35:54.000Z</time>
      </trkpt>
      <trkpt lat="45.3563" lon="4.66729">
        <ele>469.39999389648</ele>
        <time>2022-02-20T13:35:57.000Z</time>
      </trkpt>
      <trkpt lat="45.35633" lon="4.66725">
        <ele>470</ele>
        <time>2022-02-20T13:36:01.000Z</time>
      </trkpt>
      <trkpt lat="45.35648" lon="4.66704">
        <ele>472</ele>
        <time>2022-02-20T13:36:19.000Z</time>
      </trkpt>
      <trkpt lat="45.35649" lon="4.66702">
        <ele>472.20001220703</ele>
        <time>2022-02-20T13:36:20.000Z</time>
      </trkpt>
      <trkpt lat="45.35652" lon="4.66697">
        <ele>472.60000610352</ele>
        <time>2022-02-20T13:36:24.000Z</time>
      </trkpt>
      <trkpt lat="45.35664" lon="4.6668">
        <ele>474.79998779297</ele>
        <time>2022-02-20T13:36:39.000Z</time>
      </trkpt>
      <trkpt lat="45.35668" lon="4.66674">
        <ele>475.79998779297</ele>
        <time>2022-02-20T13:36:44.000Z</time>
      </trkpt>
      <trkpt lat="45.35681" lon="4.66654">
        <ele>479</ele>
        <time>2022-02-20T13:37:01.000Z</time>
      </trkpt>
      <trkpt lat="45.3568" lon="4.66649">
        <ele>479.20001220703</ele>
        <time>2022-02-20T13:37:04.000Z</time>
      </trkpt>
      <trkpt lat="45.35672" lon="4.66642">
        <ele>480.39999389648</ele>
        <time>2022-02-20T13:37:13.000Z</time>
      </trkpt>
      <trkpt lat="45.35668" lon="4.66637">
        <ele>481</ele>
        <time>2022-02-20T13:37:18.000Z</time>
      </trkpt>
      <trkpt lat="45.35653" lon="4.66614">
        <ele>482.39999389648</ele>
        <time>2022-02-20T13:37:37.000Z</time>
      </trkpt>
      <trkpt lat="45.35644" lon="4.66594">
        <ele>482.39999389648</ele>
        <time>2022-02-20T13:37:53.000Z</time>
      </trkpt>
      <trkpt lat="45.35645" lon="4.66591">
        <ele>481.79998779297</ele>
        <time>2022-02-20T13:38:33.000Z</time>
      </trkpt>
      <trkpt lat="45.35646" lon="4.66591">
        <ele>481.79998779297</ele>
        <time>2022-02-20T13:39:32.000Z</time>
      </trkpt>
      <trkpt lat="45.35646" lon="4.66588">
        <ele>483</ele>
        <time>2022-02-20T13:40:04.000Z</time>
      </trkpt>
      <trkpt lat="45.35677" lon="4.66555">
        <ele>485</ele>
        <time>2022-02-20T13:40:37.000Z</time>
      </trkpt>
      <trkpt lat="45.35705" lon="4.66525">
        <ele>487.39999389648</ele>
        <time>2022-02-20T13:41:07.000Z</time>
      </trkpt>
      <trkpt lat="45.35707" lon="4.66523">
        <ele>487.60000610352</ele>
        <time>2022-02-20T13:41:10.000Z</time>
      </trkpt>
      <trkpt lat="45.35703" lon="4.66514">
        <ele>488.39999389648</ele>
        <time>2022-02-20T13:41:17.000Z</time>
      </trkpt>
      <trkpt lat="45.3569" lon="4.66502">
        <ele>489.60000610352</ele>
        <time>2022-02-20T13:41:29.000Z</time>
      </trkpt>
      <trkpt lat="45.35689" lon="4.665">
        <ele>489.60000610352</ele>
        <time>2022-02-20T13:41:30.000Z</time>
      </trkpt>
      <trkpt lat="45.35676" lon="4.66491">
        <ele>489.79998779297</ele>
        <time>2022-02-20T13:41:41.000Z</time>
      </trkpt>
      <trkpt lat="45.3567" lon="4.66484">
        <ele>489.79998779297</ele>
        <time>2022-02-20T13:41:47.000Z</time>
      </trkpt>
      <trkpt lat="45.35663" lon="4.66473">
        <ele>490</ele>
        <time>2022-02-20T13:41:55.000Z</time>
      </trkpt>
      <trkpt lat="45.35658" lon="4.66469">
        <ele>490.20001220703</ele>
        <time>2022-02-20T13:42:00.000Z</time>
      </trkpt>
      <trkpt lat="45.35652" lon="4.66464">
        <ele>490.39999389648</ele>
        <time>2022-02-20T13:42:05.000Z</time>
      </trkpt>
      <trkpt lat="45.35647" lon="4.66457">
        <ele>490.39999389648</ele>
        <time>2022-02-20T13:42:10.000Z</time>
      </trkpt>
      <trkpt lat="45.35636" lon="4.66448">
        <ele>490.60000610352</ele>
        <time>2022-02-20T13:42:19.000Z</time>
      </trkpt>
      <trkpt lat="45.35632" lon="4.66443">
        <ele>491</ele>
        <time>2022-02-20T13:42:23.000Z</time>
      </trkpt>
      <trkpt lat="45.35627" lon="4.6644">
        <ele>491.20001220703</ele>
        <time>2022-02-20T13:42:27.000Z</time>
      </trkpt>
      <trkpt lat="45.35625" lon="4.66439">
        <ele>491.39999389648</ele>
        <time>2022-02-20T13:42:29.000Z</time>
      </trkpt>
      <trkpt lat="45.35618" lon="4.66431">
        <ele>491.79998779297</ele>
        <time>2022-02-20T13:42:38.000Z</time>
      </trkpt>
      <trkpt lat="45.3561" lon="4.66418">
        <ele>492.20001220703</ele>
        <time>2022-02-20T13:42:49.000Z</time>
      </trkpt>
      <trkpt lat="45.35608" lon="4.66407">
        <ele>492.20001220703</ele>
        <time>2022-02-20T13:42:55.000Z</time>
      </trkpt>
      <trkpt lat="45.35608" lon="4.66397">
        <ele>492.20001220703</ele>
        <time>2022-02-20T13:43:00.000Z</time>
      </trkpt>
      <trkpt lat="45.35609" lon="4.66382">
        <ele>492</ele>
        <time>2022-02-20T13:43:09.000Z</time>
      </trkpt>
      <trkpt lat="45.35613" lon="4.66352">
        <ele>491.79998779297</ele>
        <time>2022-02-20T13:43:24.000Z</time>
      </trkpt>
      <trkpt lat="45.35612" lon="4.66313">
        <ele>492.79998779297</ele>
        <time>2022-02-20T13:43:45.000Z</time>
      </trkpt>
      <trkpt lat="45.35613" lon="4.66311">
        <ele>492.79998779297</ele>
        <time>2022-02-20T13:43:46.000Z</time>
      </trkpt>
      <trkpt lat="45.35627" lon="4.66302">
        <ele>494</ele>
        <time>2022-02-20T13:44:01.000Z</time>
      </trkpt>
      <trkpt lat="45.35661" lon="4.6631">
        <ele>495.60000610352</ele>
        <time>2022-02-20T13:44:31.000Z</time>
      </trkpt>
      <trkpt lat="45.35707" lon="4.66324">
        <ele>498.20001220703</ele>
        <time>2022-02-20T13:45:07.000Z</time>
      </trkpt>
      <trkpt lat="45.35747" lon="4.66316">
        <ele>500.60000610352</ele>
        <time>2022-02-20T13:45:38.000Z</time>
      </trkpt>
      <trkpt lat="45.35785" lon="4.66333">
        <ele>501.20001220703</ele>
        <time>2022-02-20T13:46:09.000Z</time>
      </trkpt>
      <trkpt lat="45.35797" lon="4.66331">
        <ele>501.60000610352</ele>
        <time>2022-02-20T13:46:18.000Z</time>
      </trkpt>
      <trkpt lat="45.35804" lon="4.66324">
        <ele>502</ele>
        <time>2022-02-20T13:46:24.000Z</time>
      </trkpt>
      <trkpt lat="45.35823" lon="4.66301">
        <ele>504</ele>
        <time>2022-02-20T13:46:45.000Z</time>
      </trkpt>
      <trkpt lat="45.35824" lon="4.66299">
        <ele>504.20001220703</ele>
        <time>2022-02-20T13:46:47.000Z</time>
      </trkpt>
      <trkpt lat="45.35827" lon="4.6629">
        <ele>504.79998779297</ele>
        <time>2022-02-20T13:46:53.000Z</time>
      </trkpt>
      <trkpt lat="45.3582" lon="4.6627">
        <ele>507.39999389648</ele>
        <time>2022-02-20T13:47:08.000Z</time>
      </trkpt>
      <trkpt lat="45.35821" lon="4.66255">
        <ele>508.20001220703</ele>
        <time>2022-02-20T13:47:16.000Z</time>
      </trkpt>
      <trkpt lat="45.35836" lon="4.66222">
        <ele>511.39999389648</ele>
        <time>2022-02-20T13:47:38.000Z</time>
      </trkpt>
      <trkpt lat="45.35864" lon="4.66203">
        <ele>514.20001220703</ele>
        <time>2022-02-20T13:48:04.000Z</time>
      </trkpt>
      <trkpt lat="45.35887" lon="4.66211">
        <ele>516</ele>
        <time>2022-02-20T13:48:27.000Z</time>
      </trkpt>
      <trkpt lat="45.35918" lon="4.66248">
        <ele>515.79998779297</ele>
        <time>2022-02-20T13:49:00.000Z</time>
      </trkpt>
      <trkpt lat="45.35949" lon="4.66274">
        <ele>516.20001220703</ele>
        <time>2022-02-20T13:49:29.000Z</time>
      </trkpt>
      <trkpt lat="45.35967" lon="4.66268">
        <ele>516.40002441406</ele>
        <time>2022-02-20T13:49:45.000Z</time>
      </trkpt>
      <trkpt lat="45.35985" lon="4.66243">
        <ele>518.40002441406</ele>
        <time>2022-02-20T13:50:06.000Z</time>
      </trkpt>
      <trkpt lat="45.35992" lon="4.66228">
        <ele>519.40002441406</ele>
        <time>2022-02-20T13:50:16.000Z</time>
      </trkpt>
      <trkpt lat="45.35996" lon="4.66218">
        <ele>520</ele>
        <time>2022-02-20T13:50:22.000Z</time>
      </trkpt>
      <trkpt lat="45.36006" lon="4.66189">
        <ele>522.20001220703</ele>
        <time>2022-02-20T13:50:43.000Z</time>
      </trkpt>
      <trkpt lat="45.3602" lon="4.66164">
        <ele>524.20001220703</ele>
        <time>2022-02-20T13:51:03.000Z</time>
      </trkpt>
      <trkpt lat="45.36023" lon="4.6616">
        <ele>524.40002441406</ele>
        <time>2022-02-20T13:51:06.000Z</time>
      </trkpt>
      <trkpt lat="45.36029" lon="4.66148">
        <ele>525.59997558594</ele>
        <time>2022-02-20T13:51:16.000Z</time>
      </trkpt>
      <trkpt lat="45.3603" lon="4.66142">
        <ele>525.79998779297</ele>
        <time>2022-02-20T13:51:19.000Z</time>
      </trkpt>
      <trkpt lat="45.36031" lon="4.66131">
        <ele>526.79998779297</ele>
        <time>2022-02-20T13:51:26.000Z</time>
      </trkpt>
      <trkpt lat="45.36032" lon="4.66123">
        <ele>527.79998779297</ele>
        <time>2022-02-20T13:51:31.000Z</time>
      </trkpt>
      <trkpt lat="45.36032" lon="4.66118">
        <ele>528.20001220703</ele>
        <time>2022-02-20T13:51:34.000Z</time>
      </trkpt>
      <trkpt lat="45.36036" lon="4.66093">
        <ele>530.40002441406</ele>
        <time>2022-02-20T13:51:52.000Z</time>
      </trkpt>
      <trkpt lat="45.36039" lon="4.66078">
        <ele>532.20001220703</ele>
        <time>2022-02-20T13:52:02.000Z</time>
      </trkpt>
      <trkpt lat="45.36036" lon="4.66055">
        <ele>534</ele>
        <time>2022-02-20T13:52:17.000Z</time>
      </trkpt>
      <trkpt lat="45.36034" lon="4.6605">
        <ele>534.40002441406</ele>
        <time>2022-02-20T13:52:20.000Z</time>
      </trkpt>
      <trkpt lat="45.36034" lon="4.66042">
        <ele>535.20001220703</ele>
        <time>2022-02-20T13:52:25.000Z</time>
      </trkpt>
      <trkpt lat="45.36035" lon="4.66034">
        <ele>535.79998779297</ele>
        <time>2022-02-20T13:52:31.000Z</time>
      </trkpt>
      <trkpt lat="45.36044" lon="4.66009">
        <ele>537.79998779297</ele>
        <time>2022-02-20T13:52:52.000Z</time>
      </trkpt>
      <trkpt lat="45.3605" lon="4.66004">
        <ele>538.59997558594</ele>
        <time>2022-02-20T13:52:57.000Z</time>
      </trkpt>
      <trkpt lat="45.36053" lon="4.66">
        <ele>538.79998779297</ele>
        <time>2022-02-20T13:53:00.000Z</time>
      </trkpt>
      <trkpt lat="45.36054" lon="4.65994">
        <ele>539.20001220703</ele>
        <time>2022-02-20T13:53:04.000Z</time>
      </trkpt>
      <trkpt lat="45.36055" lon="4.65991">
        <ele>539.40002441406</ele>
        <time>2022-02-20T13:53:06.000Z</time>
      </trkpt>
      <trkpt lat="45.36053" lon="4.65982">
        <ele>540.20001220703</ele>
        <time>2022-02-20T13:53:13.000Z</time>
      </trkpt>
      <trkpt lat="45.36049" lon="4.65969">
        <ele>541.59997558594</ele>
        <time>2022-02-20T13:53:23.000Z</time>
      </trkpt>
      <trkpt lat="45.3604" lon="4.65956">
        <ele>544</ele>
        <time>2022-02-20T13:53:35.000Z</time>
      </trkpt>
      <trkpt lat="45.3604" lon="4.65952">
        <ele>544.40002441406</ele>
        <time>2022-02-20T13:53:38.000Z</time>
      </trkpt>
      <trkpt lat="45.36046" lon="4.65939">
        <ele>546.20001220703</ele>
        <time>2022-02-20T13:53:48.000Z</time>
      </trkpt>
      <trkpt lat="45.36053" lon="4.65927">
        <ele>548</ele>
        <time>2022-02-20T13:53:57.000Z</time>
      </trkpt>
      <trkpt lat="45.36062" lon="4.65916">
        <ele>549.59997558594</ele>
        <time>2022-02-20T13:54:08.000Z</time>
      </trkpt>
      <trkpt lat="45.3607" lon="4.65907">
        <ele>550.40002441406</ele>
        <time>2022-02-20T13:54:17.000Z</time>
      </trkpt>
      <trkpt lat="45.36072" lon="4.659">
        <ele>551</ele>
        <time>2022-02-20T13:54:22.000Z</time>
      </trkpt>
      <trkpt lat="45.36076" lon="4.65887">
        <ele>552</ele>
        <time>2022-02-20T13:54:30.000Z</time>
      </trkpt>
      <trkpt lat="45.36086" lon="4.65869">
        <ele>553.59997558594</ele>
        <time>2022-02-20T13:54:46.000Z</time>
      </trkpt>
      <trkpt lat="45.36088" lon="4.65867">
        <ele>554.20001220703</ele>
        <time>2022-02-20T13:54:49.000Z</time>
      </trkpt>
      <trkpt lat="45.36095" lon="4.65859">
        <ele>555.20001220703</ele>
        <time>2022-02-20T13:54:56.000Z</time>
      </trkpt>
      <trkpt lat="45.36093" lon="4.65855">
        <ele>556</ele>
        <time>2022-02-20T13:55:02.000Z</time>
      </trkpt>
      <trkpt lat="45.36083" lon="4.65853">
        <ele>557.79998779297</ele>
        <time>2022-02-20T13:55:13.000Z</time>
      </trkpt>
      <trkpt lat="45.36064" lon="4.65853">
        <ele>560.40002441406</ele>
        <time>2022-02-20T13:55:31.000Z</time>
      </trkpt>
      <trkpt lat="45.36049" lon="4.65849">
        <ele>561.59997558594</ele>
        <time>2022-02-20T13:55:43.000Z</time>
      </trkpt>
      <trkpt lat="45.36047" lon="4.65847">
        <ele>561.79998779297</ele>
        <time>2022-02-20T13:55:45.000Z</time>
      </trkpt>
      <trkpt lat="45.36034" lon="4.65829">
        <ele>563.79998779297</ele>
        <time>2022-02-20T13:56:01.000Z</time>
      </trkpt>
      <trkpt lat="45.36021" lon="4.65819">
        <ele>566.20001220703</ele>
        <time>2022-02-20T13:56:13.000Z</time>
      </trkpt>
      <trkpt lat="45.36019" lon="4.65814">
        <ele>566.79998779297</ele>
        <time>2022-02-20T13:56:17.000Z</time>
      </trkpt>
      <trkpt lat="45.36009" lon="4.65798">
        <ele>569.59997558594</ele>
        <time>2022-02-20T13:56:32.000Z</time>
      </trkpt>
      <trkpt lat="45.36001" lon="4.65776">
        <ele>572.20001220703</ele>
        <time>2022-02-20T13:56:47.000Z</time>
      </trkpt>
      <trkpt lat="45.35993" lon="4.65753">
        <ele>574.79998779297</ele>
        <time>2022-02-20T13:57:03.000Z</time>
      </trkpt>
      <trkpt lat="45.3599" lon="4.65741">
        <ele>576</ele>
        <time>2022-02-20T13:57:11.000Z</time>
      </trkpt>
      <trkpt lat="45.35977" lon="4.65708">
        <ele>579.20001220703</ele>
        <time>2022-02-20T13:57:34.000Z</time>
      </trkpt>
      <trkpt lat="45.35966" lon="4.65682">
        <ele>581.40002441406</ele>
        <time>2022-02-20T13:57:53.000Z</time>
      </trkpt>
      <trkpt lat="45.35958" lon="4.65655">
        <ele>583.40002441406</ele>
        <time>2022-02-20T13:58:12.000Z</time>
      </trkpt>
      <trkpt lat="45.35953" lon="4.6564">
        <ele>584.20001220703</ele>
        <time>2022-02-20T13:58:24.000Z</time>
      </trkpt>
      <trkpt lat="45.35951" lon="4.65634">
        <ele>584.59997558594</ele>
        <time>2022-02-20T13:58:28.000Z</time>
      </trkpt>
      <trkpt lat="45.35941" lon="4.65609">
        <ele>586.40002441406</ele>
        <time>2022-02-20T13:58:45.000Z</time>
      </trkpt>
      <trkpt lat="45.35937" lon="4.65602">
        <ele>587.40002441406</ele>
        <time>2022-02-20T13:58:52.000Z</time>
      </trkpt>
      <trkpt lat="45.3593" lon="4.65579">
        <ele>589.40002441406</ele>
        <time>2022-02-20T13:59:09.000Z</time>
      </trkpt>
      <trkpt lat="45.35927" lon="4.65576">
        <ele>589.79998779297</ele>
        <time>2022-02-20T13:59:11.000Z</time>
      </trkpt>
      <trkpt lat="45.35921" lon="4.65559">
        <ele>591.59997558594</ele>
        <time>2022-02-20T13:59:24.000Z</time>
      </trkpt>
      <trkpt lat="45.35911" lon="4.65536">
        <ele>593.79998779297</ele>
        <time>2022-02-20T13:59:41.000Z</time>
      </trkpt>
      <trkpt lat="45.3591" lon="4.65535">
        <ele>593.79998779297</ele>
        <time>2022-02-20T13:59:42.000Z</time>
      </trkpt>
      <trkpt lat="45.35902" lon="4.65522">
        <ele>594.79998779297</ele>
        <time>2022-02-20T13:59:52.000Z</time>
      </trkpt>
      <trkpt lat="45.359" lon="4.65516">
        <ele>595.40002441406</ele>
        <time>2022-02-20T13:59:57.000Z</time>
      </trkpt>
      <trkpt lat="45.35898" lon="4.65512">
        <ele>595.40002441406</ele>
        <time>2022-02-20T14:00:00.000Z</time>
      </trkpt>
      <trkpt lat="45.35892" lon="4.65501">
        <ele>596.40002441406</ele>
        <time>2022-02-20T14:00:08.000Z</time>
      </trkpt>
      <trkpt lat="45.3589" lon="4.65496">
        <ele>596.59997558594</ele>
        <time>2022-02-20T14:00:11.000Z</time>
      </trkpt>
      <trkpt lat="45.35886" lon="4.65493">
        <ele>596.79998779297</ele>
        <time>2022-02-20T14:00:13.000Z</time>
      </trkpt>
      <trkpt lat="45.35878" lon="4.65485">
        <ele>597.40002441406</ele>
        <time>2022-02-20T14:00:19.000Z</time>
      </trkpt>
      <trkpt lat="45.35866" lon="4.65466">
        <ele>599</ele>
        <time>2022-02-20T14:00:34.000Z</time>
      </trkpt>
      <trkpt lat="45.35864" lon="4.65454">
        <ele>599.79998779297</ele>
        <time>2022-02-20T14:00:43.000Z</time>
      </trkpt>
      <trkpt lat="45.3586" lon="4.6545">
        <ele>600.20001220703</ele>
        <time>2022-02-20T14:00:47.000Z</time>
      </trkpt>
      <trkpt lat="45.3586" lon="4.65446">
        <ele>600.40002441406</ele>
        <time>2022-02-20T14:00:49.000Z</time>
      </trkpt>
      <trkpt lat="45.35851" lon="4.65433">
        <ele>601.20001220703</ele>
        <time>2022-02-20T14:00:59.000Z</time>
      </trkpt>
      <trkpt lat="45.35846" lon="4.65421">
        <ele>601.59997558594</ele>
        <time>2022-02-20T14:01:06.000Z</time>
      </trkpt>
      <trkpt lat="45.35844" lon="4.65417">
        <ele>601.79998779297</ele>
        <time>2022-02-20T14:01:09.000Z</time>
      </trkpt>
      <trkpt lat="45.35837" lon="4.65397">
        <ele>602</ele>
        <time>2022-02-20T14:01:21.000Z</time>
      </trkpt>
      <trkpt lat="45.35828" lon="4.65361">
        <ele>602.79998779297</ele>
        <time>2022-02-20T14:01:41.000Z</time>
      </trkpt>
      <trkpt lat="45.35828" lon="4.65326">
        <ele>603.59997558594</ele>
        <time>2022-02-20T14:01:59.000Z</time>
      </trkpt>
      <trkpt lat="45.35825" lon="4.65308">
        <ele>604.20001220703</ele>
        <time>2022-02-20T14:02:10.000Z</time>
      </trkpt>
      <trkpt lat="45.35818" lon="4.65287">
        <ele>605.40002441406</ele>
        <time>2022-02-20T14:02:25.000Z</time>
      </trkpt>
      <trkpt lat="45.35817" lon="4.65285">
        <ele>605.59997558594</ele>
        <time>2022-02-20T14:02:26.000Z</time>
      </trkpt>
      <trkpt lat="45.35816" lon="4.65282">
        <ele>605.79998779297</ele>
        <time>2022-02-20T14:02:28.000Z</time>
      </trkpt>
      <trkpt lat="45.35815" lon="4.65278">
        <ele>606</ele>
        <time>2022-02-20T14:02:30.000Z</time>
      </trkpt>
      <trkpt lat="45.35809" lon="4.65258">
        <ele>607.20001220703</ele>
        <time>2022-02-20T14:02:42.000Z</time>
      </trkpt>
      <trkpt lat="45.35805" lon="4.65244">
        <ele>607.79998779297</ele>
        <time>2022-02-20T14:02:52.000Z</time>
      </trkpt>
      <trkpt lat="45.35813" lon="4.65228">
        <ele>608.79998779297</ele>
        <time>2022-02-20T14:03:11.000Z</time>
      </trkpt>
      <trkpt lat="45.35812" lon="4.65226">
        <ele>608.79998779297</ele>
        <time>2022-02-20T14:03:15.000Z</time>
      </trkpt>
      <trkpt lat="45.35808" lon="4.65216">
        <ele>609</ele>
        <time>2022-02-20T14:03:21.000Z</time>
      </trkpt>
      <trkpt lat="45.35803" lon="4.65207">
        <ele>609.20001220703</ele>
        <time>2022-02-20T14:03:27.000Z</time>
      </trkpt>
      <trkpt lat="45.35798" lon="4.65182">
        <ele>611.79998779297</ele>
        <time>2022-02-20T14:03:44.000Z</time>
      </trkpt>
      <trkpt lat="45.35787" lon="4.65165">
        <ele>614.59997558594</ele>
        <time>2022-02-20T14:04:01.000Z</time>
      </trkpt>
      <trkpt lat="45.35781" lon="4.65157">
        <ele>615.59997558594</ele>
        <time>2022-02-20T14:04:08.000Z</time>
      </trkpt>
      <trkpt lat="45.35775" lon="4.65152">
        <ele>616.20001220703</ele>
        <time>2022-02-20T14:04:13.000Z</time>
      </trkpt>
      <trkpt lat="45.35774" lon="4.6515">
        <ele>616.40002441406</ele>
        <time>2022-02-20T14:04:15.000Z</time>
      </trkpt>
      <trkpt lat="45.3577" lon="4.65138">
        <ele>618</ele>
        <time>2022-02-20T14:04:23.000Z</time>
      </trkpt>
      <trkpt lat="45.35767" lon="4.65129">
        <ele>618.79998779297</ele>
        <time>2022-02-20T14:04:30.000Z</time>
      </trkpt>
      <trkpt lat="45.35765" lon="4.65115">
        <ele>620.59997558594</ele>
        <time>2022-02-20T14:04:40.000Z</time>
      </trkpt>
      <trkpt lat="45.35766" lon="4.65107">
        <ele>621.59997558594</ele>
        <time>2022-02-20T14:04:45.000Z</time>
      </trkpt>
      <trkpt lat="45.35766" lon="4.6509">
        <ele>623</ele>
        <time>2022-02-20T14:04:55.000Z</time>
      </trkpt>
      <trkpt lat="45.35768" lon="4.6508">
        <ele>623.59997558594</ele>
        <time>2022-02-20T14:05:01.000Z</time>
      </trkpt>
      <trkpt lat="45.35763" lon="4.6505">
        <ele>626.79998779297</ele>
        <time>2022-02-20T14:05:21.000Z</time>
      </trkpt>
      <trkpt lat="45.35755" lon="4.65024">
        <ele>629.59997558594</ele>
        <time>2022-02-20T14:05:40.000Z</time>
      </trkpt>
      <trkpt lat="45.35749" lon="4.64996">
        <ele>632.20001220703</ele>
        <time>2022-02-20T14:05:59.000Z</time>
      </trkpt>
      <trkpt lat="45.35748" lon="4.64948">
        <ele>635</ele>
        <time>2022-02-20T14:06:27.000Z</time>
      </trkpt>
      <trkpt lat="45.35752" lon="4.64911">
        <ele>636.20001220703</ele>
        <time>2022-02-20T14:06:50.000Z</time>
      </trkpt>
      <trkpt lat="45.35756" lon="4.64886">
        <ele>637</ele>
        <time>2022-02-20T14:07:05.000Z</time>
      </trkpt>
      <trkpt lat="45.35755" lon="4.64879">
        <ele>637.40002441406</ele>
        <time>2022-02-20T14:07:09.000Z</time>
      </trkpt>
      <trkpt lat="45.35753" lon="4.64864">
        <ele>638</ele>
        <time>2022-02-20T14:07:18.000Z</time>
      </trkpt>
      <trkpt lat="45.3574" lon="4.64829">
        <ele>639.59997558594</ele>
        <time>2022-02-20T14:07:40.000Z</time>
      </trkpt>
      <trkpt lat="45.35725" lon="4.64796">
        <ele>640.59997558594</ele>
        <time>2022-02-20T14:08:03.000Z</time>
      </trkpt>
      <trkpt lat="45.35706" lon="4.64757">
        <ele>639.79998779297</ele>
        <time>2022-02-20T14:08:28.000Z</time>
      </trkpt>
      <trkpt lat="45.35691" lon="4.6473">
        <ele>640</ele>
        <time>2022-02-20T14:08:46.000Z</time>
      </trkpt>
      <trkpt lat="45.35686" lon="4.64725">
        <ele>640.20001220703</ele>
        <time>2022-02-20T14:08:51.000Z</time>
      </trkpt>
      <trkpt lat="45.35667" lon="4.64699">
        <ele>641.40002441406</ele>
        <time>2022-02-20T14:09:11.000Z</time>
      </trkpt>
      <trkpt lat="45.35644" lon="4.64662">
        <ele>642.40002441406</ele>
        <time>2022-02-20T14:09:38.000Z</time>
      </trkpt>
      <trkpt lat="45.35637" lon="4.64631">
        <ele>644.20001220703</ele>
        <time>2022-02-20T14:09:58.000Z</time>
      </trkpt>
      <trkpt lat="45.35628" lon="4.64597">
        <ele>647.40002441406</ele>
        <time>2022-02-20T14:10:21.000Z</time>
      </trkpt>
      <trkpt lat="45.35627" lon="4.64594">
        <ele>647.59997558594</ele>
        <time>2022-02-20T14:10:23.000Z</time>
      </trkpt>
      <trkpt lat="45.35625" lon="4.64589">
        <ele>647.79998779297</ele>
        <time>2022-02-20T14:10:27.000Z</time>
      </trkpt>
      <trkpt lat="45.35611" lon="4.64553">
        <ele>649.20001220703</ele>
        <time>2022-02-20T14:10:53.000Z</time>
      </trkpt>
      <trkpt lat="45.35599" lon="4.64514">
        <ele>650</ele>
        <time>2022-02-20T14:11:24.000Z</time>
      </trkpt>
      <trkpt lat="45.35591" lon="4.64476">
        <ele>650.40002441406</ele>
        <time>2022-02-20T14:11:47.000Z</time>
      </trkpt>
      <trkpt lat="45.3559" lon="4.64447">
        <ele>650.79998779297</ele>
        <time>2022-02-20T14:12:02.000Z</time>
      </trkpt>
      <trkpt lat="45.35589" lon="4.64409">
        <ele>650.40002441406</ele>
        <time>2022-02-20T14:12:23.000Z</time>
      </trkpt>
      <trkpt lat="45.3559" lon="4.64407">
        <ele>650.40002441406</ele>
        <time>2022-02-20T14:12:24.000Z</time>
      </trkpt>
      <trkpt lat="45.3559" lon="4.64395">
        <ele>650.40002441406</ele>
        <time>2022-02-20T14:12:30.000Z</time>
      </trkpt>
      <trkpt lat="45.35591" lon="4.64343">
        <ele>650</ele>
        <time>2022-02-20T14:12:58.000Z</time>
      </trkpt>
      <trkpt lat="45.35593" lon="4.64272">
        <ele>650.40002441406</ele>
        <time>2022-02-20T14:13:36.000Z</time>
      </trkpt>
      <trkpt lat="45.35595" lon="4.64234">
        <ele>650.79998779297</ele>
        <time>2022-02-20T14:13:57.000Z</time>
      </trkpt>
      <trkpt lat="45.35596" lon="4.6423">
        <ele>650.79998779297</ele>
        <time>2022-02-20T14:13:59.000Z</time>
      </trkpt>
      <trkpt lat="45.35596" lon="4.64225">
        <ele>651</ele>
        <time>2022-02-20T14:14:02.000Z</time>
      </trkpt>
      <trkpt lat="45.35599" lon="4.64216">
        <ele>651.20001220703</ele>
        <time>2022-02-20T14:14:08.000Z</time>
      </trkpt>
      <trkpt lat="45.35605" lon="4.64187">
        <ele>651.79998779297</ele>
        <time>2022-02-20T14:14:24.000Z</time>
      </trkpt>
      <trkpt lat="45.3561" lon="4.64147">
        <ele>653.59997558594</ele>
        <time>2022-02-20T14:14:47.000Z</time>
      </trkpt>
      <trkpt lat="45.35615" lon="4.6412">
        <ele>654.59997558594</ele>
        <time>2022-02-20T14:15:04.000Z</time>
      </trkpt>
      <trkpt lat="45.35617" lon="4.64109">
        <ele>655</ele>
        <time>2022-02-20T14:15:11.000Z</time>
      </trkpt>
      <trkpt lat="45.35624" lon="4.64085">
        <ele>656.59997558594</ele>
        <time>2022-02-20T14:15:28.000Z</time>
      </trkpt>
      <trkpt lat="45.35625" lon="4.64082">
        <ele>656.79998779297</ele>
        <time>2022-02-20T14:15:30.000Z</time>
      </trkpt>
      <trkpt lat="45.35632" lon="4.64067">
        <ele>657.79998779297</ele>
        <time>2022-02-20T14:15:41.000Z</time>
      </trkpt>
      <trkpt lat="45.35637" lon="4.64058">
        <ele>659.79998779297</ele>
        <time>2022-02-20T14:15:59.000Z</time>
      </trkpt>
      <trkpt lat="45.3564" lon="4.64061">
        <ele>660.20001220703</ele>
        <time>2022-02-20T14:16:40.000Z</time>
      </trkpt>
      <trkpt lat="45.35639" lon="4.64061">
        <ele>660</ele>
        <time>2022-02-20T14:17:11.000Z</time>
      </trkpt>
      <trkpt lat="45.35642" lon="4.64056">
        <ele>660.20001220703</ele>
        <time>2022-02-20T14:17:46.000Z</time>
      </trkpt>
      <trkpt lat="45.35642" lon="4.64056">
        <ele>660.20001220703</ele>
        <time>2022-02-20T14:17:48.000Z</time>
      </trkpt>
      <trkpt lat="45.35638" lon="4.64063">
        <ele>660.20001220703</ele>
        <time>2022-02-20T14:18:40.000Z</time>
      </trkpt>
      <trkpt lat="45.3564" lon="4.64062">
        <ele>660.20001220703</ele>
        <time>2022-02-20T14:19:11.000Z</time>
      </trkpt>
      <trkpt lat="45.35646" lon="4.64058">
        <ele>660.59997558594</ele>
        <time>2022-02-20T14:19:42.000Z</time>
      </trkpt>
      <trkpt lat="45.35656" lon="4.64068">
        <ele>660.40002441406</ele>
        <time>2022-02-20T14:20:01.000Z</time>
      </trkpt>
      <trkpt lat="45.35657" lon="4.6407">
        <ele>660.20001220703</ele>
        <time>2022-02-20T14:20:33.000Z</time>
      </trkpt>
      <trkpt lat="45.35664" lon="4.64072">
        <ele>660.40002441406</ele>
        <time>2022-02-20T14:21:15.000Z</time>
      </trkpt>
      <trkpt lat="45.35666" lon="4.64073">
        <ele>660.59997558594</ele>
        <time>2022-02-20T14:21:55.000Z</time>
      </trkpt>
      <trkpt lat="45.35664" lon="4.64072">
        <ele>661</ele>
        <time>2022-02-20T14:23:24.000Z</time>
      </trkpt>
      <trkpt lat="45.35665" lon="4.64075">
        <ele>661.20001220703</ele>
        <time>2022-02-20T14:24:40.000Z</time>
      </trkpt>
      <trkpt lat="45.35664" lon="4.64077">
        <ele>660.79998779297</ele>
        <time>2022-02-20T14:25:43.000Z</time>
      </trkpt>
      <trkpt lat="45.35674" lon="4.64078">
        <ele>660.59997558594</ele>
        <time>2022-02-20T14:26:33.000Z</time>
      </trkpt>
      <trkpt lat="45.35679" lon="4.64081">
        <ele>660.40002441406</ele>
        <time>2022-02-20T14:26:56.000Z</time>
      </trkpt>
      <trkpt lat="45.35689" lon="4.64085">
        <ele>660.20001220703</ele>
        <time>2022-02-20T14:27:15.000Z</time>
      </trkpt>
      <trkpt lat="45.35703" lon="4.64096">
        <ele>659.20001220703</ele>
        <time>2022-02-20T14:27:33.000Z</time>
      </trkpt>
      <trkpt lat="45.35719" lon="4.64107">
        <ele>656.20001220703</ele>
        <time>2022-02-20T14:27:53.000Z</time>
      </trkpt>
      <trkpt lat="45.35724" lon="4.64105">
        <ele>654.79998779297</ele>
        <time>2022-02-20T14:28:03.000Z</time>
      </trkpt>
      <trkpt lat="45.35712" lon="4.64109">
        <ele>654.79998779297</ele>
        <time>2022-02-20T14:28:49.000Z</time>
      </trkpt>
      <trkpt lat="45.35722" lon="4.64113">
        <ele>655</ele>
        <time>2022-02-20T14:29:35.000Z</time>
      </trkpt>
      <trkpt lat="45.3573" lon="4.6412">
        <ele>654.40002441406</ele>
        <time>2022-02-20T14:30:26.000Z</time>
      </trkpt>
      <trkpt lat="45.35737" lon="4.64124">
        <ele>654</ele>
        <time>2022-02-20T14:31:08.000Z</time>
      </trkpt>
      <trkpt lat="45.35735" lon="4.64122">
        <ele>654</ele>
        <time>2022-02-20T14:32:38.000Z</time>
      </trkpt>
      <trkpt lat="45.35744" lon="4.64131">
        <ele>653.40002441406</ele>
        <time>2022-02-20T14:33:00.000Z</time>
      </trkpt>
      <trkpt lat="45.3575" lon="4.64149">
        <ele>652.40002441406</ele>
        <time>2022-02-20T14:33:20.000Z</time>
      </trkpt>
      <trkpt lat="45.35753" lon="4.64154">
        <ele>651</ele>
        <time>2022-02-20T14:33:41.000Z</time>
      </trkpt>
      <trkpt lat="45.35759" lon="4.64168">
        <ele>650</ele>
        <time>2022-02-20T14:34:05.000Z</time>
      </trkpt>
      <trkpt lat="45.35764" lon="4.6417">
        <ele>646.79998779297</ele>
        <time>2022-02-20T14:34:19.000Z</time>
      </trkpt>
      <trkpt lat="45.35768" lon="4.64167">
        <ele>645.59997558594</ele>
        <time>2022-02-20T14:34:48.000Z</time>
      </trkpt>
      <trkpt lat="45.35773" lon="4.64164">
        <ele>645.59997558594</ele>
        <time>2022-02-20T14:34:51.000Z</time>
      </trkpt>
      <trkpt lat="45.35783" lon="4.64163">
        <ele>644.59997558594</ele>
        <time>2022-02-20T14:34:58.000Z</time>
      </trkpt>
      <trkpt lat="45.35794" lon="4.6417">
        <ele>643.40002441406</ele>
        <time>2022-02-20T14:35:08.000Z</time>
      </trkpt>
      <trkpt lat="45.35809" lon="4.64183">
        <ele>641.59997558594</ele>
        <time>2022-02-20T14:35:32.000Z</time>
      </trkpt>
      <trkpt lat="45.35818" lon="4.64199">
        <ele>641</ele>
        <time>2022-02-20T14:35:55.000Z</time>
      </trkpt>
      <trkpt lat="45.35824" lon="4.64207">
        <ele>640.20001220703</ele>
        <time>2022-02-20T14:36:03.000Z</time>
      </trkpt>
      <trkpt lat="45.35846" lon="4.64237">
        <ele>637.79998779297</ele>
        <time>2022-02-20T14:36:28.000Z</time>
      </trkpt>
      <trkpt lat="45.35845" lon="4.64237">
        <ele>637.79998779297</ele>
        <time>2022-02-20T14:36:29.000Z</time>
      </trkpt>
      <trkpt lat="45.35846" lon="4.64245">
        <ele>637.59997558594</ele>
        <time>2022-02-20T14:36:37.000Z</time>
      </trkpt>
      <trkpt lat="45.35852" lon="4.64251">
        <ele>637.40002441406</ele>
        <time>2022-02-20T14:36:42.000Z</time>
      </trkpt>
      <trkpt lat="45.35866" lon="4.64258">
        <ele>637.40002441406</ele>
        <time>2022-02-20T14:36:53.000Z</time>
      </trkpt>
      <trkpt lat="45.35868" lon="4.64263">
        <ele>637.20001220703</ele>
        <time>2022-02-20T14:36:58.000Z</time>
      </trkpt>
      <trkpt lat="45.35878" lon="4.64277">
        <ele>637.20001220703</ele>
        <time>2022-02-20T14:37:13.000Z</time>
      </trkpt>
      <trkpt lat="45.35879" lon="4.64279">
        <ele>637.20001220703</ele>
        <time>2022-02-20T14:37:15.000Z</time>
      </trkpt>
      <trkpt lat="45.35893" lon="4.64292">
        <ele>637.40002441406</ele>
        <time>2022-02-20T14:37:36.000Z</time>
      </trkpt>
      <trkpt lat="45.35898" lon="4.6429">
        <ele>638</ele>
        <time>2022-02-20T14:37:48.000Z</time>
      </trkpt>
      <trkpt lat="45.35906" lon="4.64291">
        <ele>638.20001220703</ele>
        <time>2022-02-20T14:37:54.000Z</time>
      </trkpt>
      <trkpt lat="45.35912" lon="4.64294">
        <ele>638.59997558594</ele>
        <time>2022-02-20T14:37:59.000Z</time>
      </trkpt>
      <trkpt lat="45.35914" lon="4.64294">
        <ele>638.79998779297</ele>
        <time>2022-02-20T14:38:02.000Z</time>
      </trkpt>
      <trkpt lat="45.35917" lon="4.643">
        <ele>640</ele>
        <time>2022-02-20T14:38:18.000Z</time>
      </trkpt>
      <trkpt lat="45.35924" lon="4.64301">
        <ele>641</ele>
        <time>2022-02-20T14:38:44.000Z</time>
      </trkpt>
      <trkpt lat="45.35935" lon="4.6431">
        <ele>642</ele>
        <time>2022-02-20T14:39:13.000Z</time>
      </trkpt>
      <trkpt lat="45.3595" lon="4.64326">
        <ele>643.20001220703</ele>
        <time>2022-02-20T14:39:33.000Z</time>
      </trkpt>
      <trkpt lat="45.35951" lon="4.64326">
        <ele>643.20001220703</ele>
        <time>2022-02-20T14:39:34.000Z</time>
      </trkpt>
      <trkpt lat="45.35966" lon="4.6434">
        <ele>644.79998779297</ele>
        <time>2022-02-20T14:39:59.000Z</time>
      </trkpt>
      <trkpt lat="45.35981" lon="4.64352">
        <ele>646</ele>
        <time>2022-02-20T14:40:15.000Z</time>
      </trkpt>
      <trkpt lat="45.35988" lon="4.64358">
        <ele>646.59997558594</ele>
        <time>2022-02-20T14:40:32.000Z</time>
      </trkpt>
      <trkpt lat="45.3599" lon="4.6436">
        <ele>646.59997558594</ele>
        <time>2022-02-20T14:40:36.000Z</time>
      </trkpt>
      <trkpt lat="45.35995" lon="4.64364">
        <ele>646.79998779297</ele>
        <time>2022-02-20T14:40:41.000Z</time>
      </trkpt>
      <trkpt lat="45.36014" lon="4.64376">
        <ele>647.79998779297</ele>
        <time>2022-02-20T14:41:01.000Z</time>
      </trkpt>
      <trkpt lat="45.36036" lon="4.64398">
        <ele>647.40002441406</ele>
        <time>2022-02-20T14:41:23.000Z</time>
      </trkpt>
      <trkpt lat="45.36061" lon="4.64421">
        <ele>646.59997558594</ele>
        <time>2022-02-20T14:41:47.000Z</time>
      </trkpt>
      <trkpt lat="45.36085" lon="4.64454">
        <ele>645</ele>
        <time>2022-02-20T14:42:14.000Z</time>
      </trkpt>
      <trkpt lat="45.36097" lon="4.64488">
        <ele>643.20001220703</ele>
        <time>2022-02-20T14:42:40.000Z</time>
      </trkpt>
      <trkpt lat="45.36094" lon="4.64501">
        <ele>641</ele>
        <time>2022-02-20T14:42:50.000Z</time>
      </trkpt>
      <trkpt lat="45.3609" lon="4.64521">
        <ele>637.40002441406</ele>
        <time>2022-02-20T14:43:06.000Z</time>
      </trkpt>
      <trkpt lat="45.36085" lon="4.64534">
        <ele>634.40002441406</ele>
        <time>2022-02-20T14:43:16.000Z</time>
      </trkpt>
      <trkpt lat="45.3608" lon="4.64552">
        <ele>632.59997558594</ele>
        <time>2022-02-20T14:43:31.000Z</time>
      </trkpt>
      <trkpt lat="45.36076" lon="4.64565">
        <ele>630.20001220703</ele>
        <time>2022-02-20T14:43:40.000Z</time>
      </trkpt>
      <trkpt lat="45.3608" lon="4.64597">
        <ele>626.79998779297</ele>
        <time>2022-02-20T14:44:00.000Z</time>
      </trkpt>
      <trkpt lat="45.36082" lon="4.64634">
        <ele>624</ele>
        <time>2022-02-20T14:44:22.000Z</time>
      </trkpt>
      <trkpt lat="45.36069" lon="4.64642">
        <ele>621</ele>
        <time>2022-02-20T14:44:40.000Z</time>
      </trkpt>
      <trkpt lat="45.36069" lon="4.64639">
        <ele>620.40002441406</ele>
        <time>2022-02-20T14:45:42.000Z</time>
      </trkpt>
      <trkpt lat="45.36069" lon="4.6464">
        <ele>620.59997558594</ele>
        <time>2022-02-20T14:46:34.000Z</time>
      </trkpt>
      <trkpt lat="45.36069" lon="4.64639">
        <ele>620.40002441406</ele>
        <time>2022-02-20T14:47:18.000Z</time>
      </trkpt>
      <trkpt lat="45.36069" lon="4.64639">
        <ele>620.20001220703</ele>
        <time>2022-02-20T14:48:17.000Z</time>
      </trkpt>
      <trkpt lat="45.36068" lon="4.64638">
        <ele>620.20001220703</ele>
        <time>2022-02-20T14:48:49.000Z</time>
      </trkpt>
      <trkpt lat="45.36066" lon="4.64637">
        <ele>620.20001220703</ele>
        <time>2022-02-20T14:49:31.000Z</time>
      </trkpt>
      <trkpt lat="45.36067" lon="4.64635">
        <ele>620</ele>
        <time>2022-02-20T14:50:22.000Z</time>
      </trkpt>
      <trkpt lat="45.36067" lon="4.64636">
        <ele>620.40002441406</ele>
        <time>2022-02-20T14:51:40.000Z</time>
      </trkpt>
      <trkpt lat="45.36066" lon="4.64637">
        <ele>620.59997558594</ele>
        <time>2022-02-20T14:52:06.000Z</time>
      </trkpt>
      <trkpt lat="45.36064" lon="4.64639">
        <ele>620.59997558594</ele>
        <time>2022-02-20T14:52:09.000Z</time>
      </trkpt>
      <trkpt lat="45.36041" lon="4.64656">
        <ele>618.59997558594</ele>
        <time>2022-02-20T14:52:33.000Z</time>
      </trkpt>
      <trkpt lat="45.36018" lon="4.64643">
        <ele>616</ele>
        <time>2022-02-20T14:52:55.000Z</time>
      </trkpt>
      <trkpt lat="45.36001" lon="4.64628">
        <ele>613.59997558594</ele>
        <time>2022-02-20T14:53:13.000Z</time>
      </trkpt>
      <trkpt lat="45.35997" lon="4.64623">
        <ele>613.20001220703</ele>
        <time>2022-02-20T14:53:18.000Z</time>
      </trkpt>
      <trkpt lat="45.35987" lon="4.64625">
        <ele>612</ele>
        <time>2022-02-20T14:53:26.000Z</time>
      </trkpt>
      <trkpt lat="45.35978" lon="4.64624">
        <ele>611.40002441406</ele>
        <time>2022-02-20T14:53:33.000Z</time>
      </trkpt>
      <trkpt lat="45.35958" lon="4.64629">
        <ele>611</ele>
        <time>2022-02-20T14:53:47.000Z</time>
      </trkpt>
      <trkpt lat="45.3594" lon="4.64651">
        <ele>610.79998779297</ele>
        <time>2022-02-20T14:54:07.000Z</time>
      </trkpt>
      <trkpt lat="45.35935" lon="4.64679">
        <ele>612.40002441406</ele>
        <time>2022-02-20T14:54:26.000Z</time>
      </trkpt>
      <trkpt lat="45.35933" lon="4.64683">
        <ele>612.79998779297</ele>
        <time>2022-02-20T14:54:30.000Z</time>
      </trkpt>
      <trkpt lat="45.35928" lon="4.64693">
        <ele>615</ele>
        <time>2022-02-20T14:54:46.000Z</time>
      </trkpt>
      <trkpt lat="45.3593" lon="4.64696">
        <ele>615.20001220703</ele>
        <time>2022-02-20T14:55:03.000Z</time>
      </trkpt>
      <trkpt lat="45.35924" lon="4.64702">
        <ele>615.59997558594</ele>
        <time>2022-02-20T14:55:19.000Z</time>
      </trkpt>
      <trkpt lat="45.35922" lon="4.64704">
        <ele>615.79998779297</ele>
        <time>2022-02-20T14:55:23.000Z</time>
      </trkpt>
      <trkpt lat="45.35918" lon="4.64708">
        <ele>616</ele>
        <time>2022-02-20T14:55:28.000Z</time>
      </trkpt>
      <trkpt lat="45.35902" lon="4.6472">
        <ele>618</ele>
        <time>2022-02-20T14:55:45.000Z</time>
      </trkpt>
      <trkpt lat="45.35881" lon="4.64736">
        <ele>620.59997558594</ele>
        <time>2022-02-20T14:56:02.000Z</time>
      </trkpt>
      <trkpt lat="45.35863" lon="4.64748">
        <ele>623.20001220703</ele>
        <time>2022-02-20T14:56:20.000Z</time>
      </trkpt>
      <trkpt lat="45.35848" lon="4.64762">
        <ele>626.40002441406</ele>
        <time>2022-02-20T14:56:38.000Z</time>
      </trkpt>
      <trkpt lat="45.35833" lon="4.64772">
        <ele>629.40002441406</ele>
        <time>2022-02-20T14:56:54.000Z</time>
      </trkpt>
      <trkpt lat="45.3582" lon="4.64777">
        <ele>631.79998779297</ele>
        <time>2022-02-20T14:57:10.000Z</time>
      </trkpt>
      <trkpt lat="45.358" lon="4.64782">
        <ele>635</ele>
        <time>2022-02-20T14:57:30.000Z</time>
      </trkpt>
      <trkpt lat="45.35782" lon="4.64788">
        <ele>637.79998779297</ele>
        <time>2022-02-20T14:57:50.000Z</time>
      </trkpt>
      <trkpt lat="45.35758" lon="4.64795">
        <ele>640.79998779297</ele>
        <time>2022-02-20T14:58:12.000Z</time>
      </trkpt>
      <trkpt lat="45.35736" lon="4.648">
        <ele>642.79998779297</ele>
        <time>2022-02-20T14:58:32.000Z</time>
      </trkpt>
      <trkpt lat="45.35727" lon="4.64799">
        <ele>644</ele>
        <time>2022-02-20T14:58:50.000Z</time>
      </trkpt>
      <trkpt lat="45.35727" lon="4.648">
        <ele>643.79998779297</ele>
        <time>2022-02-20T14:59:33.000Z</time>
      </trkpt>
      <trkpt lat="45.35732" lon="4.64802">
        <ele>643.59997558594</ele>
        <time>2022-02-20T15:00:11.000Z</time>
      </trkpt>
      <trkpt lat="45.35762" lon="4.64793">
        <ele>642</ele>
        <time>2022-02-20T15:00:38.000Z</time>
      </trkpt>
      <trkpt lat="45.35789" lon="4.64784">
        <ele>639.20001220703</ele>
        <time>2022-02-20T15:01:01.000Z</time>
      </trkpt>
      <trkpt lat="45.35809" lon="4.64777">
        <ele>636</ele>
        <time>2022-02-20T15:01:19.000Z</time>
      </trkpt>
      <trkpt lat="45.35827" lon="4.6477">
        <ele>633</ele>
        <time>2022-02-20T15:01:35.000Z</time>
      </trkpt>
      <trkpt lat="45.35837" lon="4.64759">
        <ele>630</ele>
        <time>2022-02-20T15:01:49.000Z</time>
      </trkpt>
      <trkpt lat="45.35844" lon="4.64751">
        <ele>628</ele>
        <time>2022-02-20T15:01:57.000Z</time>
      </trkpt>
      <trkpt lat="45.35862" lon="4.64735">
        <ele>624.59997558594</ele>
        <time>2022-02-20T15:02:11.000Z</time>
      </trkpt>
      <trkpt lat="45.3588" lon="4.64722">
        <ele>621.79998779297</ele>
        <time>2022-02-20T15:02:28.000Z</time>
      </trkpt>
      <trkpt lat="45.35894" lon="4.64706">
        <ele>618.79998779297</ele>
        <time>2022-02-20T15:02:45.000Z</time>
      </trkpt>
      <trkpt lat="45.35914" lon="4.6469">
        <ele>615.79998779297</ele>
        <time>2022-02-20T15:03:05.000Z</time>
      </trkpt>
      <trkpt lat="45.3593" lon="4.64673">
        <ele>613.40002441406</ele>
        <time>2022-02-20T15:03:19.000Z</time>
      </trkpt>
      <trkpt lat="45.35931" lon="4.64671">
        <ele>613.20001220703</ele>
        <time>2022-02-20T15:03:20.000Z</time>
      </trkpt>
      <trkpt lat="45.35938" lon="4.64661">
        <ele>612</ele>
        <time>2022-02-20T15:03:27.000Z</time>
      </trkpt>
      <trkpt lat="45.35952" lon="4.64635">
        <ele>609.79998779297</ele>
        <time>2022-02-20T15:03:44.000Z</time>
      </trkpt>
      <trkpt lat="45.35957" lon="4.64633">
        <ele>609.40002441406</ele>
        <time>2022-02-20T15:03:48.000Z</time>
      </trkpt>
      <trkpt lat="45.35958" lon="4.64632">
        <ele>609.40002441406</ele>
        <time>2022-02-20T15:03:49.000Z</time>
      </trkpt>
      <trkpt lat="45.35963" lon="4.64631">
        <ele>609.20001220703</ele>
        <time>2022-02-20T15:03:53.000Z</time>
      </trkpt>
      <trkpt lat="45.35965" lon="4.64631">
        <ele>609.20001220703</ele>
        <time>2022-02-20T15:03:54.000Z</time>
      </trkpt>
      <trkpt lat="45.35966" lon="4.64631">
        <ele>609.20001220703</ele>
        <time>2022-02-20T15:03:55.000Z</time>
      </trkpt>
      <trkpt lat="45.35967" lon="4.64632">
        <ele>609</ele>
        <time>2022-02-20T15:03:56.000Z</time>
      </trkpt>
      <trkpt lat="45.35968" lon="4.64632">
        <ele>609</ele>
        <time>2022-02-20T15:03:57.000Z</time>
      </trkpt>
      <trkpt lat="45.35969" lon="4.64632">
        <ele>609</ele>
        <time>2022-02-20T15:03:58.000Z</time>
      </trkpt>
      <trkpt lat="45.35971" lon="4.64632">
        <ele>609</ele>
        <time>2022-02-20T15:03:59.000Z</time>
      </trkpt>
      <trkpt lat="45.35988" lon="4.64634">
        <ele>609.20001220703</ele>
        <time>2022-02-20T15:04:11.000Z</time>
      </trkpt>
      <trkpt lat="45.35991" lon="4.64634">
        <ele>609.20001220703</ele>
        <time>2022-02-20T15:04:13.000Z</time>
      </trkpt>
      <trkpt lat="45.35992" lon="4.64635">
        <ele>609.20001220703</ele>
        <time>2022-02-20T15:04:14.000Z</time>
      </trkpt>
      <trkpt lat="45.35993" lon="4.64635">
        <ele>609.40002441406</ele>
        <time>2022-02-20T15:04:15.000Z</time>
      </trkpt>
      <trkpt lat="45.35995" lon="4.64635">
        <ele>609.40002441406</ele>
        <time>2022-02-20T15:04:16.000Z</time>
      </trkpt>
      <trkpt lat="45.35996" lon="4.64636">
        <ele>609.40002441406</ele>
        <time>2022-02-20T15:04:17.000Z</time>
      </trkpt>
      <trkpt lat="45.35997" lon="4.64636">
        <ele>609.40002441406</ele>
        <time>2022-02-20T15:04:18.000Z</time>
      </trkpt>
      <trkpt lat="45.36014" lon="4.64641">
        <ele>611</ele>
        <time>2022-02-20T15:04:33.000Z</time>
      </trkpt>
      <trkpt lat="45.36016" lon="4.64641">
        <ele>611.20001220703</ele>
        <time>2022-02-20T15:04:34.000Z</time>
      </trkpt>
      <trkpt lat="45.36017" lon="4.64642">
        <ele>611.40002441406</ele>
        <time>2022-02-20T15:04:35.000Z</time>
      </trkpt>
      <trkpt lat="45.36019" lon="4.64642">
        <ele>611.40002441406</ele>
        <time>2022-02-20T15:04:36.000Z</time>
      </trkpt>
      <trkpt lat="45.3602" lon="4.64643">
        <ele>611.59997558594</ele>
        <time>2022-02-20T15:04:37.000Z</time>
      </trkpt>
      <trkpt lat="45.36021" lon="4.64644">
        <ele>611.79998779297</ele>
        <time>2022-02-20T15:04:38.000Z</time>
      </trkpt>
      <trkpt lat="45.36023" lon="4.64645">
        <ele>612</ele>
        <time>2022-02-20T15:04:39.000Z</time>
      </trkpt>
      <trkpt lat="45.36025" lon="4.64645">
        <ele>612.20001220703</ele>
        <time>2022-02-20T15:04:40.000Z</time>
      </trkpt>
      <trkpt lat="45.36026" lon="4.64646">
        <ele>612.40002441406</ele>
        <time>2022-02-20T15:04:41.000Z</time>
      </trkpt>
      <trkpt lat="45.36048" lon="4.64654">
        <ele>615.40002441406</ele>
        <time>2022-02-20T15:05:01.000Z</time>
      </trkpt>
      <trkpt lat="45.3607" lon="4.64637">
        <ele>618</ele>
        <time>2022-02-20T15:05:22.000Z</time>
      </trkpt>
      <trkpt lat="45.36083" lon="4.64635">
        <ele>620</ele>
        <time>2022-02-20T15:05:33.000Z</time>
      </trkpt>
      <trkpt lat="45.36085" lon="4.64636">
        <ele>620.20001220703</ele>
        <time>2022-02-20T15:05:34.000Z</time>
      </trkpt>
      <trkpt lat="45.36104" lon="4.64666">
        <ele>620</ele>
        <time>2022-02-20T15:05:54.000Z</time>
      </trkpt>
      <trkpt lat="45.36122" lon="4.647">
        <ele>617</ele>
        <time>2022-02-20T15:06:16.000Z</time>
      </trkpt>
      <trkpt lat="45.36127" lon="4.64742">
        <ele>615.40002441406</ele>
        <time>2022-02-20T15:06:38.000Z</time>
      </trkpt>
      <trkpt lat="45.36127" lon="4.64744">
        <ele>615.20001220703</ele>
        <time>2022-02-20T15:06:39.000Z</time>
      </trkpt>
      <trkpt lat="45.36126" lon="4.64746">
        <ele>615.20001220703</ele>
        <time>2022-02-20T15:06:40.000Z</time>
      </trkpt>
      <trkpt lat="45.36126" lon="4.64748">
        <ele>615</ele>
        <time>2022-02-20T15:06:41.000Z</time>
      </trkpt>
      <trkpt lat="45.36126" lon="4.6475">
        <ele>615</ele>
        <time>2022-02-20T15:06:42.000Z</time>
      </trkpt>
      <trkpt lat="45.36125" lon="4.64752">
        <ele>615</ele>
        <time>2022-02-20T15:06:43.000Z</time>
      </trkpt>
      <trkpt lat="45.36125" lon="4.64754">
        <ele>614.79998779297</ele>
        <time>2022-02-20T15:06:44.000Z</time>
      </trkpt>
      <trkpt lat="45.36125" lon="4.64756">
        <ele>614.79998779297</ele>
        <time>2022-02-20T15:06:45.000Z</time>
      </trkpt>
      <trkpt lat="45.36125" lon="4.64757">
        <ele>614.79998779297</ele>
        <time>2022-02-20T15:06:46.000Z</time>
      </trkpt>
      <trkpt lat="45.36125" lon="4.64759">
        <ele>614.59997558594</ele>
        <time>2022-02-20T15:06:47.000Z</time>
      </trkpt>
      <trkpt lat="45.36124" lon="4.64761">
        <ele>614.59997558594</ele>
        <time>2022-02-20T15:06:48.000Z</time>
      </trkpt>
      <trkpt lat="45.36124" lon="4.64763">
        <ele>614.40002441406</ele>
        <time>2022-02-20T15:06:49.000Z</time>
      </trkpt>
      <trkpt lat="45.36124" lon="4.64765">
        <ele>614.40002441406</ele>
        <time>2022-02-20T15:06:50.000Z</time>
      </trkpt>
      <trkpt lat="45.36123" lon="4.64766">
        <ele>614.20001220703</ele>
        <time>2022-02-20T15:06:51.000Z</time>
      </trkpt>
      <trkpt lat="45.36122" lon="4.64768">
        <ele>614.20001220703</ele>
        <time>2022-02-20T15:06:52.000Z</time>
      </trkpt>
      <trkpt lat="45.36122" lon="4.64769">
        <ele>614</ele>
        <time>2022-02-20T15:06:53.000Z</time>
      </trkpt>
      <trkpt lat="45.36122" lon="4.64771">
        <ele>614</ele>
        <time>2022-02-20T15:06:54.000Z</time>
      </trkpt>
      <trkpt lat="45.36124" lon="4.64787">
        <ele>612.79998779297</ele>
        <time>2022-02-20T15:07:03.000Z</time>
      </trkpt>
      <trkpt lat="45.36126" lon="4.64789">
        <ele>612.59997558594</ele>
        <time>2022-02-20T15:07:04.000Z</time>
      </trkpt>
      <trkpt lat="45.36127" lon="4.6479">
        <ele>612.59997558594</ele>
        <time>2022-02-20T15:07:05.000Z</time>
      </trkpt>
      <trkpt lat="45.36129" lon="4.64792">
        <ele>612.40002441406</ele>
        <time>2022-02-20T15:07:06.000Z</time>
      </trkpt>
      <trkpt lat="45.3613" lon="4.64793">
        <ele>612.40002441406</ele>
        <time>2022-02-20T15:07:07.000Z</time>
      </trkpt>
      <trkpt lat="45.36142" lon="4.64795">
        <ele>612.20001220703</ele>
        <time>2022-02-20T15:07:19.000Z</time>
      </trkpt>
      <trkpt lat="45.36158" lon="4.64792">
        <ele>613.20001220703</ele>
        <time>2022-02-20T15:07:34.000Z</time>
      </trkpt>
      <trkpt lat="45.36164" lon="4.64789">
        <ele>613.40002441406</ele>
        <time>2022-02-20T15:07:38.000Z</time>
      </trkpt>
      <trkpt lat="45.36179" lon="4.64777">
        <ele>613</ele>
        <time>2022-02-20T15:07:52.000Z</time>
      </trkpt>
      <trkpt lat="45.36196" lon="4.64767">
        <ele>612.79998779297</ele>
        <time>2022-02-20T15:08:07.000Z</time>
      </trkpt>
      <trkpt lat="45.36211" lon="4.64748">
        <ele>612.40002441406</ele>
        <time>2022-02-20T15:08:24.000Z</time>
      </trkpt>
      <trkpt lat="45.36217" lon="4.64738">
        <ele>612.20001220703</ele>
        <time>2022-02-20T15:08:31.000Z</time>
      </trkpt>
      <trkpt lat="45.36224" lon="4.64729">
        <ele>612</ele>
        <time>2022-02-20T15:08:37.000Z</time>
      </trkpt>
      <trkpt lat="45.36229" lon="4.64721">
        <ele>611.59997558594</ele>
        <time>2022-02-20T15:08:41.000Z</time>
      </trkpt>
      <trkpt lat="45.36237" lon="4.64698">
        <ele>611.59997558594</ele>
        <time>2022-02-20T15:08:54.000Z</time>
      </trkpt>
      <trkpt lat="45.36241" lon="4.6469">
        <ele>611.79998779297</ele>
        <time>2022-02-20T15:08:59.000Z</time>
      </trkpt>
      <trkpt lat="45.36258" lon="4.64654">
        <ele>613.59997558594</ele>
        <time>2022-02-20T15:09:22.000Z</time>
      </trkpt>
      <trkpt lat="45.36276" lon="4.64617">
        <ele>615.59997558594</ele>
        <time>2022-02-20T15:09:47.000Z</time>
      </trkpt>
      <trkpt lat="45.36282" lon="4.6461">
        <ele>615.20001220703</ele>
        <time>2022-02-20T15:09:54.000Z</time>
      </trkpt>
      <trkpt lat="45.36295" lon="4.64605">
        <ele>614.20001220703</ele>
        <time>2022-02-20T15:10:05.000Z</time>
      </trkpt>
      <trkpt lat="45.36298" lon="4.64607">
        <ele>614</ele>
        <time>2022-02-20T15:10:08.000Z</time>
      </trkpt>
      <trkpt lat="45.36302" lon="4.64613">
        <ele>614</ele>
        <time>2022-02-20T15:10:12.000Z</time>
      </trkpt>
      <trkpt lat="45.36303" lon="4.64619">
        <ele>614</ele>
        <time>2022-02-20T15:10:18.000Z</time>
      </trkpt>
      <trkpt lat="45.36298" lon="4.64654">
        <ele>613.20001220703</ele>
        <time>2022-02-20T15:10:37.000Z</time>
      </trkpt>
      <trkpt lat="45.36292" lon="4.64686">
        <ele>612.20001220703</ele>
        <time>2022-02-20T15:10:54.000Z</time>
      </trkpt>
      <trkpt lat="45.36284" lon="4.6471">
        <ele>609.79998779297</ele>
        <time>2022-02-20T15:11:09.000Z</time>
      </trkpt>
      <trkpt lat="45.36283" lon="4.64714">
        <ele>609.40002441406</ele>
        <time>2022-02-20T15:11:12.000Z</time>
      </trkpt>
      <trkpt lat="45.3628" lon="4.6474">
        <ele>607.79998779297</ele>
        <time>2022-02-20T15:11:24.000Z</time>
      </trkpt>
      <trkpt lat="45.36279" lon="4.64759">
        <ele>606.40002441406</ele>
        <time>2022-02-20T15:11:35.000Z</time>
      </trkpt>
      <trkpt lat="45.36284" lon="4.64804">
        <ele>604.79998779297</ele>
        <time>2022-02-20T15:11:59.000Z</time>
      </trkpt>
      <trkpt lat="45.36282" lon="4.64851">
        <ele>603.40002441406</ele>
        <time>2022-02-20T15:12:26.000Z</time>
      </trkpt>
      <trkpt lat="45.36281" lon="4.64899">
        <ele>600.79998779297</ele>
        <time>2022-02-20T15:12:56.000Z</time>
      </trkpt>
      <trkpt lat="45.36281" lon="4.64902">
        <ele>600.40002441406</ele>
        <time>2022-02-20T15:13:00.000Z</time>
      </trkpt>
      <trkpt lat="45.36273" lon="4.64949">
        <ele>598</ele>
        <time>2022-02-20T15:13:29.000Z</time>
      </trkpt>
      <trkpt lat="45.36264" lon="4.64984">
        <ele>595</ele>
        <time>2022-02-20T15:13:49.000Z</time>
      </trkpt>
      <trkpt lat="45.36251" lon="4.65026">
        <ele>591.79998779297</ele>
        <time>2022-02-20T15:14:16.000Z</time>
      </trkpt>
      <trkpt lat="45.3624" lon="4.65057">
        <ele>589.20001220703</ele>
        <time>2022-02-20T15:14:35.000Z</time>
      </trkpt>
      <trkpt lat="45.36228" lon="4.65089">
        <ele>586</ele>
        <time>2022-02-20T15:14:56.000Z</time>
      </trkpt>
      <trkpt lat="45.36216" lon="4.65117">
        <ele>583</ele>
        <time>2022-02-20T15:15:15.000Z</time>
      </trkpt>
      <trkpt lat="45.36204" lon="4.65144">
        <ele>579.79998779297</ele>
        <time>2022-02-20T15:15:32.000Z</time>
      </trkpt>
      <trkpt lat="45.3619" lon="4.65186">
        <ele>576.79998779297</ele>
        <time>2022-02-20T15:15:57.000Z</time>
      </trkpt>
      <trkpt lat="45.3618" lon="4.6522">
        <ele>573.79998779297</ele>
        <time>2022-02-20T15:16:17.000Z</time>
      </trkpt>
      <trkpt lat="45.36177" lon="4.65274">
        <ele>570.79998779297</ele>
        <time>2022-02-20T15:16:49.000Z</time>
      </trkpt>
      <trkpt lat="45.36181" lon="4.65332">
        <ele>567.79998779297</ele>
        <time>2022-02-20T15:17:21.000Z</time>
      </trkpt>
      <trkpt lat="45.36186" lon="4.65377">
        <ele>564.59997558594</ele>
        <time>2022-02-20T15:17:46.000Z</time>
      </trkpt>
      <trkpt lat="45.36192" lon="4.6542">
        <ele>561.59997558594</ele>
        <time>2022-02-20T15:18:10.000Z</time>
      </trkpt>
      <trkpt lat="45.36196" lon="4.65468">
        <ele>558.59997558594</ele>
        <time>2022-02-20T15:18:36.000Z</time>
      </trkpt>
      <trkpt lat="45.36195" lon="4.6547">
        <ele>558.59997558594</ele>
        <time>2022-02-20T15:18:37.000Z</time>
      </trkpt>
      <trkpt lat="45.36194" lon="4.65472">
        <ele>558.40002441406</ele>
        <time>2022-02-20T15:18:38.000Z</time>
      </trkpt>
      <trkpt lat="45.36193" lon="4.65474">
        <ele>558.40002441406</ele>
        <time>2022-02-20T15:18:39.000Z</time>
      </trkpt>
      <trkpt lat="45.36192" lon="4.65476">
        <ele>558.40002441406</ele>
        <time>2022-02-20T15:18:40.000Z</time>
      </trkpt>
      <trkpt lat="45.36193" lon="4.65478">
        <ele>558.20001220703</ele>
        <time>2022-02-20T15:18:41.000Z</time>
      </trkpt>
      <trkpt lat="45.36193" lon="4.65479">
        <ele>558.20001220703</ele>
        <time>2022-02-20T15:18:42.000Z</time>
      </trkpt>
      <trkpt lat="45.36194" lon="4.6548">
        <ele>558</ele>
        <time>2022-02-20T15:18:43.000Z</time>
      </trkpt>
      <trkpt lat="45.36197" lon="4.65508">
        <ele>556.20001220703</ele>
        <time>2022-02-20T15:19:00.000Z</time>
      </trkpt>
      <trkpt lat="45.36197" lon="4.6551">
        <ele>556.20001220703</ele>
        <time>2022-02-20T15:19:01.000Z</time>
      </trkpt>
      <trkpt lat="45.36197" lon="4.65513">
        <ele>555.79998779297</ele>
        <time>2022-02-20T15:19:03.000Z</time>
      </trkpt>
      <trkpt lat="45.36198" lon="4.65522">
        <ele>555.20001220703</ele>
        <time>2022-02-20T15:19:09.000Z</time>
      </trkpt>
      <trkpt lat="45.36199" lon="4.65524">
        <ele>555</ele>
        <time>2022-02-20T15:19:10.000Z</time>
      </trkpt>
      <trkpt lat="45.36199" lon="4.65526">
        <ele>555</ele>
        <time>2022-02-20T15:19:11.000Z</time>
      </trkpt>
      <trkpt lat="45.362" lon="4.65527">
        <ele>554.79998779297</ele>
        <time>2022-02-20T15:19:12.000Z</time>
      </trkpt>
      <trkpt lat="45.362" lon="4.65529">
        <ele>554.79998779297</ele>
        <time>2022-02-20T15:19:13.000Z</time>
      </trkpt>
      <trkpt lat="45.36201" lon="4.65531">
        <ele>554.59997558594</ele>
        <time>2022-02-20T15:19:14.000Z</time>
      </trkpt>
      <trkpt lat="45.36201" lon="4.65532">
        <ele>554.59997558594</ele>
        <time>2022-02-20T15:19:15.000Z</time>
      </trkpt>
      <trkpt lat="45.36202" lon="4.65534">
        <ele>554.59997558594</ele>
        <time>2022-02-20T15:19:16.000Z</time>
      </trkpt>
      <trkpt lat="45.36203" lon="4.65535">
        <ele>554.40002441406</ele>
        <time>2022-02-20T15:19:17.000Z</time>
      </trkpt>
      <trkpt lat="45.36203" lon="4.65537">
        <ele>554.40002441406</ele>
        <time>2022-02-20T15:19:18.000Z</time>
      </trkpt>
      <trkpt lat="45.3622" lon="4.65574">
        <ele>552.59997558594</ele>
        <time>2022-02-20T15:19:41.000Z</time>
      </trkpt>
      <trkpt lat="45.36238" lon="4.65604">
        <ele>550</ele>
        <time>2022-02-20T15:20:03.000Z</time>
      </trkpt>
      <trkpt lat="45.36257" lon="4.65639">
        <ele>547.79998779297</ele>
        <time>2022-02-20T15:20:26.000Z</time>
      </trkpt>
      <trkpt lat="45.36285" lon="4.6567">
        <ele>546</ele>
        <time>2022-02-20T15:20:52.000Z</time>
      </trkpt>
      <trkpt lat="45.36297" lon="4.65689">
        <ele>545</ele>
        <time>2022-02-20T15:21:07.000Z</time>
      </trkpt>
      <trkpt lat="45.36297" lon="4.65691">
        <ele>544.79998779297</ele>
        <time>2022-02-20T15:21:08.000Z</time>
      </trkpt>
      <trkpt lat="45.36298" lon="4.65695">
        <ele>544.79998779297</ele>
        <time>2022-02-20T15:21:10.000Z</time>
      </trkpt>
      <trkpt lat="45.36306" lon="4.65704">
        <ele>544.20001220703</ele>
        <time>2022-02-20T15:21:17.000Z</time>
      </trkpt>
      <trkpt lat="45.36307" lon="4.65704">
        <ele>544.20001220703</ele>
        <time>2022-02-20T15:21:18.000Z</time>
      </trkpt>
      <trkpt lat="45.36309" lon="4.65704">
        <ele>544.20001220703</ele>
        <time>2022-02-20T15:21:19.000Z</time>
      </trkpt>
      <trkpt lat="45.3631" lon="4.65705">
        <ele>544</ele>
        <time>2022-02-20T15:21:20.000Z</time>
      </trkpt>
      <trkpt lat="45.3631" lon="4.65706">
        <ele>544</ele>
        <time>2022-02-20T15:21:21.000Z</time>
      </trkpt>
      <trkpt lat="45.36311" lon="4.65707">
        <ele>543.79998779297</ele>
        <time>2022-02-20T15:21:22.000Z</time>
      </trkpt>
      <trkpt lat="45.36312" lon="4.65709">
        <ele>543.59997558594</ele>
        <time>2022-02-20T15:21:23.000Z</time>
      </trkpt>
      <trkpt lat="45.36329" lon="4.65735">
        <ele>541.40002441406</ele>
        <time>2022-02-20T15:21:42.000Z</time>
      </trkpt>
      <trkpt lat="45.36334" lon="4.65742">
        <ele>540.79998779297</ele>
        <time>2022-02-20T15:21:47.000Z</time>
      </trkpt>
      <trkpt lat="45.36336" lon="4.65743">
        <ele>540.79998779297</ele>
        <time>2022-02-20T15:21:48.000Z</time>
      </trkpt>
      <trkpt lat="45.36337" lon="4.65745">
        <ele>540.79998779297</ele>
        <time>2022-02-20T15:21:49.000Z</time>
      </trkpt>
      <trkpt lat="45.36338" lon="4.65746">
        <ele>540.59997558594</ele>
        <time>2022-02-20T15:21:50.000Z</time>
      </trkpt>
      <trkpt lat="45.36339" lon="4.65748">
        <ele>540.59997558594</ele>
        <time>2022-02-20T15:21:51.000Z</time>
      </trkpt>
      <trkpt lat="45.36337" lon="4.6577">
        <ele>539.59997558594</ele>
        <time>2022-02-20T15:22:03.000Z</time>
      </trkpt>
      <trkpt lat="45.36337" lon="4.65772">
        <ele>539.59997558594</ele>
        <time>2022-02-20T15:22:04.000Z</time>
      </trkpt>
      <trkpt lat="45.36337" lon="4.65775">
        <ele>539.59997558594</ele>
        <time>2022-02-20T15:22:05.000Z</time>
      </trkpt>
      <trkpt lat="45.36336" lon="4.65777">
        <ele>539.40002441406</ele>
        <time>2022-02-20T15:22:06.000Z</time>
      </trkpt>
      <trkpt lat="45.36336" lon="4.65778">
        <ele>539.40002441406</ele>
        <time>2022-02-20T15:22:07.000Z</time>
      </trkpt>
      <trkpt lat="45.36326" lon="4.65835">
        <ele>537.40002441406</ele>
        <time>2022-02-20T15:22:37.000Z</time>
      </trkpt>
      <trkpt lat="45.36321" lon="4.65852">
        <ele>536.40002441406</ele>
        <time>2022-02-20T15:22:47.000Z</time>
      </trkpt>
      <trkpt lat="45.3632" lon="4.65854">
        <ele>536.20001220703</ele>
        <time>2022-02-20T15:22:48.000Z</time>
      </trkpt>
      <trkpt lat="45.3632" lon="4.65856">
        <ele>536</ele>
        <time>2022-02-20T15:22:49.000Z</time>
      </trkpt>
      <trkpt lat="45.36319" lon="4.65857">
        <ele>536</ele>
        <time>2022-02-20T15:22:50.000Z</time>
      </trkpt>
      <trkpt lat="45.36319" lon="4.65859">
        <ele>535.79998779297</ele>
        <time>2022-02-20T15:22:51.000Z</time>
      </trkpt>
      <trkpt lat="45.36316" lon="4.65874">
        <ele>534.79998779297</ele>
        <time>2022-02-20T15:23:01.000Z</time>
      </trkpt>
      <trkpt lat="45.36317" lon="4.65875">
        <ele>534.79998779297</ele>
        <time>2022-02-20T15:23:02.000Z</time>
      </trkpt>
      <trkpt lat="45.36318" lon="4.65877">
        <ele>534.79998779297</ele>
        <time>2022-02-20T15:23:03.000Z</time>
      </trkpt>
      <trkpt lat="45.36339" lon="4.65892">
        <ele>535.59997558594</ele>
        <time>2022-02-20T15:23:24.000Z</time>
      </trkpt>
      <trkpt lat="45.36341" lon="4.65894">
        <ele>537.20001220703</ele>
        <time>2022-02-20T15:23:45.000Z</time>
      </trkpt>
      <trkpt lat="45.36356" lon="4.65906">
        <ele>537.79998779297</ele>
        <time>2022-02-20T15:24:17.000Z</time>
      </trkpt>
      <trkpt lat="45.36376" lon="4.65916">
        <ele>540.59997558594</ele>
        <time>2022-02-20T15:24:36.000Z</time>
      </trkpt>
      <trkpt lat="45.36402" lon="4.65926">
        <ele>542</ele>
        <time>2022-02-20T15:24:59.000Z</time>
      </trkpt>
      <trkpt lat="45.36436" lon="4.65942">
        <ele>542.79998779297</ele>
        <time>2022-02-20T15:25:25.000Z</time>
      </trkpt>
      <trkpt lat="45.36473" lon="4.65956">
        <ele>543</ele>
        <time>2022-02-20T15:25:55.000Z</time>
      </trkpt>
      <trkpt lat="45.36498" lon="4.65968">
        <ele>543.20001220703</ele>
        <time>2022-02-20T15:26:15.000Z</time>
      </trkpt>
      <trkpt lat="45.36501" lon="4.6597">
        <ele>543.20001220703</ele>
        <time>2022-02-20T15:26:18.000Z</time>
      </trkpt>
      <trkpt lat="45.36528" lon="4.66017">
        <ele>543.59997558594</ele>
        <time>2022-02-20T15:26:50.000Z</time>
      </trkpt>
      <trkpt lat="45.36555" lon="4.66035">
        <ele>544.59997558594</ele>
        <time>2022-02-20T15:27:14.000Z</time>
      </trkpt>
      <trkpt lat="45.36581" lon="4.66069">
        <ele>547</ele>
        <time>2022-02-20T15:27:41.000Z</time>
      </trkpt>
      <trkpt lat="45.36612" lon="4.66107">
        <ele>549.79998779297</ele>
        <time>2022-02-20T15:28:14.000Z</time>
      </trkpt>
      <trkpt lat="45.36632" lon="4.66111">
        <ele>552</ele>
        <time>2022-02-20T15:28:32.000Z</time>
      </trkpt>
      <trkpt lat="45.36639" lon="4.6611">
        <ele>553.20001220703</ele>
        <time>2022-02-20T15:28:39.000Z</time>
      </trkpt>
      <trkpt lat="45.3666" lon="4.66096">
        <ele>556.20001220703</ele>
        <time>2022-02-20T15:28:57.000Z</time>
      </trkpt>
      <trkpt lat="45.36675" lon="4.66095">
        <ele>558</ele>
        <time>2022-02-20T15:29:14.000Z</time>
      </trkpt>
      <trkpt lat="45.36687" lon="4.66128">
        <ele>559</ele>
        <time>2022-02-20T15:29:34.000Z</time>
      </trkpt>
      <trkpt lat="45.3669" lon="4.66147">
        <ele>559.59997558594</ele>
        <time>2022-02-20T15:29:46.000Z</time>
      </trkpt>
      <trkpt lat="45.3671" lon="4.66178">
        <ele>560.40002441406</ele>
        <time>2022-02-20T15:30:09.000Z</time>
      </trkpt>
      <trkpt lat="45.36738" lon="4.66208">
        <ele>562.79998779297</ele>
        <time>2022-02-20T15:30:38.000Z</time>
      </trkpt>
      <trkpt lat="45.36756" lon="4.66219">
        <ele>565.59997558594</ele>
        <time>2022-02-20T15:30:59.000Z</time>
      </trkpt>
      <trkpt lat="45.36768" lon="4.66223">
        <ele>567.20001220703</ele>
        <time>2022-02-20T15:31:12.000Z</time>
      </trkpt>
      <trkpt lat="45.36772" lon="4.66229">
        <ele>568</ele>
        <time>2022-02-20T15:31:17.000Z</time>
      </trkpt>
      <trkpt lat="45.36786" lon="4.66238">
        <ele>570</ele>
        <time>2022-02-20T15:31:30.000Z</time>
      </trkpt>
      <trkpt lat="45.36789" lon="4.66243">
        <ele>570.59997558594</ele>
        <time>2022-02-20T15:31:34.000Z</time>
      </trkpt>
      <trkpt lat="45.36814" lon="4.6627">
        <ele>573.20001220703</ele>
        <time>2022-02-20T15:31:58.000Z</time>
      </trkpt>
      <trkpt lat="45.36833" lon="4.66294">
        <ele>574</ele>
        <time>2022-02-20T15:32:18.000Z</time>
      </trkpt>
      <trkpt lat="45.36848" lon="4.66284">
        <ele>574.40002441406</ele>
        <time>2022-02-20T15:32:32.000Z</time>
      </trkpt>
      <trkpt lat="45.3686" lon="4.66261">
        <ele>575.20001220703</ele>
        <time>2022-02-20T15:32:49.000Z</time>
      </trkpt>
      <trkpt lat="45.36879" lon="4.66225">
        <ele>577</ele>
        <time>2022-02-20T15:33:14.000Z</time>
      </trkpt>
      <trkpt lat="45.36899" lon="4.66199">
        <ele>578.40002441406</ele>
        <time>2022-02-20T15:33:36.000Z</time>
      </trkpt>
      <trkpt lat="45.36918" lon="4.66195">
        <ele>580.59997558594</ele>
        <time>2022-02-20T15:33:57.000Z</time>
      </trkpt>
      <trkpt lat="45.3692" lon="4.66203">
        <ele>581.59997558594</ele>
        <time>2022-02-20T15:34:01.000Z</time>
      </trkpt>
      <trkpt lat="45.36923" lon="4.6621">
        <ele>582</ele>
        <time>2022-02-20T15:34:05.000Z</time>
      </trkpt>
      <trkpt lat="45.36924" lon="4.66219">
        <ele>582.40002441406</ele>
        <time>2022-02-20T15:34:10.000Z</time>
      </trkpt>
      <trkpt lat="45.3693" lon="4.66235">
        <ele>583.40002441406</ele>
        <time>2022-02-20T15:34:20.000Z</time>
      </trkpt>
      <trkpt lat="45.36936" lon="4.66259">
        <ele>584.40002441406</ele>
        <time>2022-02-20T15:34:32.000Z</time>
      </trkpt>
      <trkpt lat="45.36948" lon="4.66299">
        <ele>585.59997558594</ele>
        <time>2022-02-20T15:34:57.000Z</time>
      </trkpt>
      <trkpt lat="45.36961" lon="4.66349">
        <ele>584.40002441406</ele>
        <time>2022-02-20T15:35:25.000Z</time>
      </trkpt>
      <trkpt lat="45.36963" lon="4.66367">
        <ele>582.59997558594</ele>
        <time>2022-02-20T15:35:45.000Z</time>
      </trkpt>
      <trkpt lat="45.36964" lon="4.66371">
        <ele>582.59997558594</ele>
        <time>2022-02-20T15:36:03.000Z</time>
      </trkpt>
      <trkpt lat="45.36966" lon="4.66376">
        <ele>582.40002441406</ele>
        <time>2022-02-20T15:36:07.000Z</time>
      </trkpt>
      <trkpt lat="45.36979" lon="4.66409">
        <ele>581.79998779297</ele>
        <time>2022-02-20T15:36:29.000Z</time>
      </trkpt>
      <trkpt lat="45.37001" lon="4.66455">
        <ele>579.79998779297</ele>
        <time>2022-02-20T15:37:01.000Z</time>
      </trkpt>
      <trkpt lat="45.37021" lon="4.66495">
        <ele>578.59997558594</ele>
        <time>2022-02-20T15:37:29.000Z</time>
      </trkpt>
      <trkpt lat="45.3705" lon="4.66541">
        <ele>580.40002441406</ele>
        <time>2022-02-20T15:38:03.000Z</time>
      </trkpt>
      <trkpt lat="45.3707" lon="4.66572">
        <ele>581.20001220703</ele>
        <time>2022-02-20T15:38:27.000Z</time>
      </trkpt>
      <trkpt lat="45.37095" lon="4.66619">
        <ele>582.79998779297</ele>
        <time>2022-02-20T15:39:02.000Z</time>
      </trkpt>
      <trkpt lat="45.37103" lon="4.66647">
        <ele>584.40002441406</ele>
        <time>2022-02-20T15:39:19.000Z</time>
      </trkpt>
      <trkpt lat="45.37105" lon="4.66654">
        <ele>584.79998779297</ele>
        <time>2022-02-20T15:39:23.000Z</time>
      </trkpt>
      <trkpt lat="45.37125" lon="4.66708">
        <ele>587.79998779297</ele>
        <time>2022-02-20T15:39:57.000Z</time>
      </trkpt>
      <trkpt lat="45.37151" lon="4.66758">
        <ele>589.20001220703</ele>
        <time>2022-02-20T15:40:29.000Z</time>
      </trkpt>
      <trkpt lat="45.37188" lon="4.66813">
        <ele>590.59997558594</ele>
        <time>2022-02-20T15:41:09.000Z</time>
      </trkpt>
      <trkpt lat="45.37215" lon="4.66874">
        <ele>592.79998779297</ele>
        <time>2022-02-20T15:41:46.000Z</time>
      </trkpt>
      <trkpt lat="45.37235" lon="4.66933">
        <ele>594.40002441406</ele>
        <time>2022-02-20T15:42:20.000Z</time>
      </trkpt>
      <trkpt lat="45.37258" lon="4.66967">
        <ele>596.59997558594</ele>
        <time>2022-02-20T15:42:48.000Z</time>
      </trkpt>
      <trkpt lat="45.37278" lon="4.66998">
        <ele>597.79998779297</ele>
        <time>2022-02-20T15:43:13.000Z</time>
      </trkpt>
      <trkpt lat="45.37304" lon="4.6702">
        <ele>598.79998779297</ele>
        <time>2022-02-20T15:43:36.000Z</time>
      </trkpt>
      <trkpt lat="45.37323" lon="4.67033">
        <ele>600.40002441406</ele>
        <time>2022-02-20T15:43:53.000Z</time>
      </trkpt>
      <trkpt lat="45.37347" lon="4.67048">
        <ele>602.59997558594</ele>
        <time>2022-02-20T15:44:14.000Z</time>
      </trkpt>
      <trkpt lat="45.37355" lon="4.67056">
        <ele>602.79998779297</ele>
        <time>2022-02-20T15:44:21.000Z</time>
      </trkpt>
      <trkpt lat="45.37362" lon="4.67065">
        <ele>602.79998779297</ele>
        <time>2022-02-20T15:44:28.000Z</time>
      </trkpt>
      <trkpt lat="45.37371" lon="4.67072">
        <ele>602.59997558594</ele>
        <time>2022-02-20T15:44:37.000Z</time>
      </trkpt>
      <trkpt lat="45.37386" lon="4.67084">
        <ele>599.59997558594</ele>
        <time>2022-02-20T15:44:58.000Z</time>
      </trkpt>
      <trkpt lat="45.37404" lon="4.67087">
        <ele>596.59997558594</ele>
        <time>2022-02-20T15:45:16.000Z</time>
      </trkpt>
      <trkpt lat="45.37417" lon="4.67089">
        <ele>594</ele>
        <time>2022-02-20T15:45:31.000Z</time>
      </trkpt>
      <trkpt lat="45.37437" lon="4.67089">
        <ele>590.79998779297</ele>
        <time>2022-02-20T15:45:51.000Z</time>
      </trkpt>
      <trkpt lat="45.37444" lon="4.6709">
        <ele>590</ele>
        <time>2022-02-20T15:45:55.000Z</time>
      </trkpt>
      <trkpt lat="45.3745" lon="4.67093">
        <ele>589</ele>
        <time>2022-02-20T15:45:59.000Z</time>
      </trkpt>
      <trkpt lat="45.37474" lon="4.67094">
        <ele>586.59997558594</ele>
        <time>2022-02-20T15:46:22.000Z</time>
      </trkpt>
      <trkpt lat="45.37492" lon="4.67101">
        <ele>584.40002441406</ele>
        <time>2022-02-20T15:46:39.000Z</time>
      </trkpt>
      <trkpt lat="45.37508" lon="4.67086">
        <ele>581</ele>
        <time>2022-02-20T15:46:58.000Z</time>
      </trkpt>
      <trkpt lat="45.37527" lon="4.67072">
        <ele>578</ele>
        <time>2022-02-20T15:47:16.000Z</time>
      </trkpt>
      <trkpt lat="45.37545" lon="4.67066">
        <ele>575</ele>
        <time>2022-02-20T15:47:33.000Z</time>
      </trkpt>
      <trkpt lat="45.37566" lon="4.67056">
        <ele>571.79998779297</ele>
        <time>2022-02-20T15:47:52.000Z</time>
      </trkpt>
      <trkpt lat="45.37584" lon="4.6705">
        <ele>568.79998779297</ele>
        <time>2022-02-20T15:48:12.000Z</time>
      </trkpt>
      <trkpt lat="45.37601" lon="4.67039">
        <ele>565.59997558594</ele>
        <time>2022-02-20T15:48:28.000Z</time>
      </trkpt>
      <trkpt lat="45.37613" lon="4.67037">
        <ele>563.40002441406</ele>
        <time>2022-02-20T15:48:39.000Z</time>
      </trkpt>
      <trkpt lat="45.37644" lon="4.67043">
        <ele>561</ele>
        <time>2022-02-20T15:48:59.000Z</time>
      </trkpt>
      <trkpt lat="45.37656" lon="4.67052">
        <ele>560.40002441406</ele>
        <time>2022-02-20T15:49:09.000Z</time>
      </trkpt>
      <trkpt lat="45.37679" lon="4.67062">
        <ele>559.40002441406</ele>
        <time>2022-02-20T15:49:26.000Z</time>
      </trkpt>
      <trkpt lat="45.37692" lon="4.67067">
        <ele>559</ele>
        <time>2022-02-20T15:49:37.000Z</time>
      </trkpt>
      <trkpt lat="45.37697" lon="4.6707">
        <ele>559</ele>
        <time>2022-02-20T15:49:42.000Z</time>
      </trkpt>
      <trkpt lat="45.37701" lon="4.6707">
        <ele>559.20001220703</ele>
        <time>2022-02-20T15:49:45.000Z</time>
      </trkpt>
      <trkpt lat="45.37705" lon="4.67073">
        <ele>559.59997558594</ele>
        <time>2022-02-20T15:49:49.000Z</time>
      </trkpt>
      <trkpt lat="45.37718" lon="4.67074">
        <ele>560.59997558594</ele>
        <time>2022-02-20T15:50:01.000Z</time>
      </trkpt>
      <trkpt lat="45.3773" lon="4.67085">
        <ele>561</ele>
        <time>2022-02-20T15:50:11.000Z</time>
      </trkpt>
      <trkpt lat="45.37738" lon="4.67089">
        <ele>560.40002441406</ele>
        <time>2022-02-20T15:50:18.000Z</time>
      </trkpt>
      <trkpt lat="45.37745" lon="4.67094">
        <ele>560.20001220703</ele>
        <time>2022-02-20T15:50:22.000Z</time>
      </trkpt>
      <trkpt lat="45.37753" lon="4.67105">
        <ele>559.79998779297</ele>
        <time>2022-02-20T15:50:30.000Z</time>
      </trkpt>
      <trkpt lat="45.37759" lon="4.67109">
        <ele>559.20001220703</ele>
        <time>2022-02-20T15:50:35.000Z</time>
      </trkpt>
      <trkpt lat="45.3777" lon="4.67118">
        <ele>558.20001220703</ele>
        <time>2022-02-20T15:50:45.000Z</time>
      </trkpt>
      <trkpt lat="45.37782" lon="4.67133">
        <ele>556.79998779297</ele>
        <time>2022-02-20T15:50:58.000Z</time>
      </trkpt>
      <trkpt lat="45.37786" lon="4.67136">
        <ele>556.59997558594</ele>
        <time>2022-02-20T15:51:01.000Z</time>
      </trkpt>
      <trkpt lat="45.37792" lon="4.67144">
        <ele>555.59997558594</ele>
        <time>2022-02-20T15:51:08.000Z</time>
      </trkpt>
      <trkpt lat="45.37812" lon="4.67156">
        <ele>552.40002441406</ele>
        <time>2022-02-20T15:51:27.000Z</time>
      </trkpt>
      <trkpt lat="45.37828" lon="4.6716">
        <ele>551.79998779297</ele>
        <time>2022-02-20T15:51:45.000Z</time>
      </trkpt>
      <trkpt lat="45.37847" lon="4.67163">
        <ele>551.79998779297</ele>
        <time>2022-02-20T15:52:02.000Z</time>
      </trkpt>
      <trkpt lat="45.37868" lon="4.67173">
        <ele>551.40002441406</ele>
        <time>2022-02-20T15:52:20.000Z</time>
      </trkpt>
      <trkpt lat="45.37889" lon="4.67175">
        <ele>551.40002441406</ele>
        <time>2022-02-20T15:52:36.000Z</time>
      </trkpt>
      <trkpt lat="45.37919" lon="4.67179">
        <ele>551.40002441406</ele>
        <time>2022-02-20T15:52:58.000Z</time>
      </trkpt>
      <trkpt lat="45.37943" lon="4.67176">
        <ele>551.20001220703</ele>
        <time>2022-02-20T15:53:17.000Z</time>
      </trkpt>
      <trkpt lat="45.37975" lon="4.67175">
        <ele>551.20001220703</ele>
        <time>2022-02-20T15:53:40.000Z</time>
      </trkpt>
      <trkpt lat="45.38001" lon="4.67176">
        <ele>551.40002441406</ele>
        <time>2022-02-20T15:54:00.000Z</time>
      </trkpt>
      <trkpt lat="45.38038" lon="4.67178">
        <ele>552.40002441406</ele>
        <time>2022-02-20T15:54:26.000Z</time>
      </trkpt>
      <trkpt lat="45.38067" lon="4.67178">
        <ele>553</ele>
        <time>2022-02-20T15:54:47.000Z</time>
      </trkpt>
      <trkpt lat="45.38104" lon="4.67186">
        <ele>553.59997558594</ele>
        <time>2022-02-20T15:55:15.000Z</time>
      </trkpt>
      <trkpt lat="45.38133" lon="4.67189">
        <ele>554.40002441406</ele>
        <time>2022-02-20T15:55:37.000Z</time>
      </trkpt>
      <trkpt lat="45.38157" lon="4.67191">
        <ele>554.79998779297</ele>
        <time>2022-02-20T15:55:55.000Z</time>
      </trkpt>
      <trkpt lat="45.38189" lon="4.67196">
        <ele>555.59997558594</ele>
        <time>2022-02-20T15:56:18.000Z</time>
      </trkpt>
      <trkpt lat="45.38224" lon="4.67201">
        <ele>555.79998779297</ele>
        <time>2022-02-20T15:56:43.000Z</time>
      </trkpt>
      <trkpt lat="45.38263" lon="4.67205">
        <ele>554.59997558594</ele>
        <time>2022-02-20T15:57:15.000Z</time>
      </trkpt>
      <trkpt lat="45.383" lon="4.67215">
        <ele>552</ele>
        <time>2022-02-20T15:57:45.000Z</time>
      </trkpt>
      <trkpt lat="45.38349" lon="4.67238">
        <ele>549.40002441406</ele>
        <time>2022-02-20T15:58:23.000Z</time>
      </trkpt>
      <trkpt lat="45.38383" lon="4.67258">
        <ele>547.20001220703</ele>
        <time>2022-02-20T15:58:52.000Z</time>
      </trkpt>
      <trkpt lat="45.38427" lon="4.67283">
        <ele>544.20001220703</ele>
        <time>2022-02-20T15:59:29.000Z</time>
      </trkpt>
      <trkpt lat="45.38466" lon="4.67296">
        <ele>542.20001220703</ele>
        <time>2022-02-20T16:00:01.000Z</time>
      </trkpt>
      <trkpt lat="45.38503" lon="4.67294">
        <ele>540.20001220703</ele>
        <time>2022-02-20T16:00:31.000Z</time>
      </trkpt>
      <trkpt lat="45.38546" lon="4.67304">
        <ele>538</ele>
        <time>2022-02-20T16:01:06.000Z</time>
      </trkpt>
      <trkpt lat="45.38587" lon="4.67342">
        <ele>536</ele>
        <time>2022-02-20T16:01:43.000Z</time>
      </trkpt>
      <trkpt lat="45.38606" lon="4.67402">
        <ele>533.40002441406</ele>
        <time>2022-02-20T16:02:20.000Z</time>
      </trkpt>
      <trkpt lat="45.38607" lon="4.67463">
        <ele>530.79998779297</ele>
        <time>2022-02-20T16:02:56.000Z</time>
      </trkpt>
      <trkpt lat="45.38604" lon="4.67506">
        <ele>528.59997558594</ele>
        <time>2022-02-20T16:03:21.000Z</time>
      </trkpt>
      <trkpt lat="45.38599" lon="4.67564">
        <ele>526</ele>
        <time>2022-02-20T16:03:56.000Z</time>
      </trkpt>
      <trkpt lat="45.38599" lon="4.67566">
        <ele>526</ele>
        <time>2022-02-20T16:03:57.000Z</time>
      </trkpt>
      <trkpt lat="45.38604" lon="4.67584">
        <ele>524.59997558594</ele>
        <time>2022-02-20T16:04:17.000Z</time>
      </trkpt>
      <trkpt lat="45.38609" lon="4.67575">
        <ele>524.20001220703</ele>
        <time>2022-02-20T16:04:25.000Z</time>
      </trkpt>
      <trkpt lat="45.3862" lon="4.67553">
        <ele>522.40002441406</ele>
        <time>2022-02-20T16:04:43.000Z</time>
      </trkpt>
      <trkpt lat="45.3862" lon="4.67548">
        <ele>522</ele>
        <time>2022-02-20T16:05:07.000Z</time>
      </trkpt>
      <trkpt lat="45.38624" lon="4.67549">
        <ele>489.60000610352</ele>
        <time>2022-02-20T16:05:19.000Z</time>
      </trkpt>
    </trkseg>
  </trk>
</gpx>